<?xml version="1.0" encoding="utf-8"?>
<gpx xmlns:xsi="http://www.w3.org/2001/XMLSchema-instance" xmlns:xsd="http://www.w3.org/2001/XMLSchema" version="1.1" creator="Shapelink.com" xmlns="http://www.topografix.com/GPX/1/1" xmlns:gpxtpx="http://www.garmin.com/xmlschemas/TrackPointExtension/v1">
  <metadata>
    <name>Løping 10.04 km, 2019-04-20</name>
    <desc></desc>
    <author><name>Stefan Östlund</name></author> 
    <time>2019-04-20T15:21:35Z</time>
  </metadata>
  <trk>
    <name>Løping 10.04 km, 2019-04-20</name>
    <trkseg>
      <trkpt lat="36.835635355066" lon="-2.455669718148">
        <ele>0</ele>
        <time>2019-04-20T15:21:35Z</time>
      </trkpt>
      <trkpt lat="36.835630325926" lon="-2.455682793912">
        <ele>0</ele>
        <time>2019-04-20T15:21:36Z</time>
      </trkpt>
      <trkpt lat="36.83563250522" lon="-2.455704167757">
        <ele>0</ele>
        <time>2019-04-20T15:21:37Z</time>
      </trkpt>
      <trkpt lat="36.835630493564" lon="-2.455738533547">
        <ele>0</ele>
        <time>2019-04-20T15:21:39Z</time>
      </trkpt>
      <trkpt lat="36.835585231304" lon="-2.455780023952">
        <ele>0</ele>
        <time>2019-04-20T15:21:41Z</time>
      </trkpt>
      <trkpt lat="36.83553695156" lon="-2.455803157996">
        <ele>0</ele>
        <time>2019-04-20T15:21:43Z</time>
      </trkpt>
      <trkpt lat="36.835349867552" lon="-2.455816904312">
        <ele>0</ele>
        <time>2019-04-20T15:21:49Z</time>
      </trkpt>
      <trkpt lat="36.835164124648" lon="-2.455876667259">
        <ele>0</ele>
        <time>2019-04-20T15:21:55Z</time>
      </trkpt>
      <trkpt lat="36.835134368903" lon="-2.455890078299">
        <ele>0</ele>
        <time>2019-04-20T15:21:57Z</time>
      </trkpt>
      <trkpt lat="36.835129423582" lon="-2.455837523786">
        <ele>0</ele>
        <time>2019-04-20T15:22:02Z</time>
      </trkpt>
      <trkpt lat="36.835065804961" lon="-2.455816820493">
        <ele>0</ele>
        <time>2019-04-20T15:22:05Z</time>
      </trkpt>
      <trkpt lat="36.835024398375" lon="-2.455808522412">
        <ele>0</ele>
        <time>2019-04-20T15:22:07Z</time>
      </trkpt>
      <trkpt lat="36.834950470017" lon="-2.455790501327">
        <ele>0</ele>
        <time>2019-04-20T15:22:11Z</time>
      </trkpt>
      <trkpt lat="36.834877379849" lon="-2.455763176333">
        <ele>0</ele>
        <time>2019-04-20T15:22:15Z</time>
      </trkpt>
      <trkpt lat="36.834826417897" lon="-2.455743562687">
        <ele>0</ele>
        <time>2019-04-20T15:22:18Z</time>
      </trkpt>
      <trkpt lat="36.834766235855" lon="-2.455697629875">
        <ele>0</ele>
        <time>2019-04-20T15:22:22Z</time>
      </trkpt>
      <trkpt lat="36.834688619461" lon="-2.45558908427">
        <ele>0</ele>
        <time>2019-04-20T15:22:27Z</time>
      </trkpt>
      <trkpt lat="36.834642099916" lon="-2.45553208735">
        <ele>0</ele>
        <time>2019-04-20T15:22:31Z</time>
      </trkpt>
      <trkpt lat="36.8345612984" lon="-2.455406023574">
        <ele>0</ele>
        <time>2019-04-20T15:22:37Z</time>
      </trkpt>
      <trkpt lat="36.834473623726" lon="-2.455273421916">
        <ele>0</ele>
        <time>2019-04-20T15:22:43Z</time>
      </trkpt>
      <trkpt lat="36.83438444031" lon="-2.455162361741">
        <ele>0</ele>
        <time>2019-04-20T15:22:49Z</time>
      </trkpt>
      <trkpt lat="36.834281510578" lon="-2.455059934923">
        <ele>0</ele>
        <time>2019-04-20T15:22:55Z</time>
      </trkpt>
      <trkpt lat="36.834244881675" lon="-2.455061527484">
        <ele>0</ele>
        <time>2019-04-20T15:22:57Z</time>
      </trkpt>
      <trkpt lat="36.834223256373" lon="-2.455058845276">
        <ele>0</ele>
        <time>2019-04-20T15:22:58Z</time>
      </trkpt>
      <trkpt lat="36.834136838984" lon="-2.455062365674">
        <ele>0</ele>
        <time>2019-04-20T15:23:02Z</time>
      </trkpt>
      <trkpt lat="36.834075734933" lon="-2.455090445039">
        <ele>0</ele>
        <time>2019-04-20T15:23:05Z</time>
      </trkpt>
      <trkpt lat="36.83402569499" lon="-2.455109220495">
        <ele>0</ele>
        <time>2019-04-20T15:23:08Z</time>
      </trkpt>
      <trkpt lat="36.834016139624" lon="-2.455120284603">
        <ele>0</ele>
        <time>2019-04-20T15:23:09Z</time>
      </trkpt>
      <trkpt lat="36.834027287551" lon="-2.455136294032">
        <ele>0</ele>
        <time>2019-04-20T15:23:11Z</time>
      </trkpt>
      <trkpt lat="36.834041285324" lon="-2.455123721182">
        <ele>0</ele>
        <time>2019-04-20T15:23:13Z</time>
      </trkpt>
      <trkpt lat="36.834074393829" lon="-2.455098826939">
        <ele>0</ele>
        <time>2019-04-20T15:23:17Z</time>
      </trkpt>
      <trkpt lat="36.834009350285" lon="-2.455150962357">
        <ele>0</ele>
        <time>2019-04-20T15:23:23Z</time>
      </trkpt>
      <trkpt lat="36.833970122993" lon="-2.455193877685">
        <ele>0</ele>
        <time>2019-04-20T15:23:27Z</time>
      </trkpt>
      <trkpt lat="36.833910611503" lon="-2.455240313411">
        <ele>0</ele>
        <time>2019-04-20T15:23:31Z</time>
      </trkpt>
      <trkpt lat="36.833767448651" lon="-2.455269398604">
        <ele>0</ele>
        <time>2019-04-20T15:23:36Z</time>
      </trkpt>
      <trkpt lat="36.833690586628" lon="-2.455308625896">
        <ele>0</ele>
        <time>2019-04-20T15:23:40Z</time>
      </trkpt>
      <trkpt lat="36.833484140431" lon="-2.455356151269">
        <ele>0</ele>
        <time>2019-04-20T15:23:46Z</time>
      </trkpt>
      <trkpt lat="36.833326309254" lon="-2.45542982817">
        <ele>0</ele>
        <time>2019-04-20T15:23:52Z</time>
      </trkpt>
      <trkpt lat="36.83317660852" lon="-2.45551867631">
        <ele>0</ele>
        <time>2019-04-20T15:23:58Z</time>
      </trkpt>
      <trkpt lat="36.833121371799" lon="-2.45555052753">
        <ele>0</ele>
        <time>2019-04-20T15:24:00Z</time>
      </trkpt>
      <trkpt lat="36.832981226431" lon="-2.455632837788">
        <ele>0</ele>
        <time>2019-04-20T15:24:06Z</time>
      </trkpt>
      <trkpt lat="36.832858347777" lon="-2.455688912699">
        <ele>0</ele>
        <time>2019-04-20T15:24:11Z</time>
      </trkpt>
      <trkpt lat="36.832715268744" lon="-2.455752698958">
        <ele>0</ele>
        <time>2019-04-20T15:24:17Z</time>
      </trkpt>
      <trkpt lat="36.832570932426" lon="-2.455830399171">
        <ele>0</ele>
        <time>2019-04-20T15:24:23Z</time>
      </trkpt>
      <trkpt lat="36.83243061942" lon="-2.455907261194">
        <ele>0</ele>
        <time>2019-04-20T15:24:29Z</time>
      </trkpt>
      <trkpt lat="36.832307908404" lon="-2.455979848448">
        <ele>0</ele>
        <time>2019-04-20T15:24:35Z</time>
      </trkpt>
      <trkpt lat="36.832175222927" lon="-2.456056626652">
        <ele>0</ele>
        <time>2019-04-20T15:24:41Z</time>
      </trkpt>
      <trkpt lat="36.832031724799" lon="-2.456110522269">
        <ele>0</ele>
        <time>2019-04-20T15:24:47Z</time>
      </trkpt>
      <trkpt lat="36.831901553892" lon="-2.456118736531">
        <ele>0</ele>
        <time>2019-04-20T15:24:52Z</time>
      </trkpt>
      <trkpt lat="36.831855956356" lon="-2.45612384949">
        <ele>0</ele>
        <time>2019-04-20T15:24:54Z</time>
      </trkpt>
      <trkpt lat="36.83176258199" lon="-2.456157880004">
        <ele>0</ele>
        <time>2019-04-20T15:24:58Z</time>
      </trkpt>
      <trkpt lat="36.831718074101" lon="-2.456203393721">
        <ele>0</ele>
        <time>2019-04-20T15:25:00Z</time>
      </trkpt>
      <trkpt lat="36.831670129633" lon="-2.456286206893">
        <ele>0</ele>
        <time>2019-04-20T15:25:03Z</time>
      </trkpt>
      <trkpt lat="36.831629142142" lon="-2.456449234848">
        <ele>0</ele>
        <time>2019-04-20T15:25:09Z</time>
      </trkpt>
      <trkpt lat="36.831622688079" lon="-2.456502543732">
        <ele>0</ele>
        <time>2019-04-20T15:25:11Z</time>
      </trkpt>
      <trkpt lat="36.831579186018" lon="-2.456630367707">
        <ele>0</ele>
        <time>2019-04-20T15:25:17Z</time>
      </trkpt>
      <trkpt lat="36.831451864957" lon="-2.456733800353">
        <ele>0</ele>
        <time>2019-04-20T15:25:23Z</time>
      </trkpt>
      <trkpt lat="36.831321274955" lon="-2.456849805849">
        <ele>0</ele>
        <time>2019-04-20T15:25:29Z</time>
      </trkpt>
      <trkpt lat="36.831212058798" lon="-2.456921890189">
        <ele>0</ele>
        <time>2019-04-20T15:25:34Z</time>
      </trkpt>
      <trkpt lat="36.83107526619" lon="-2.457005122456">
        <ele>0</ele>
        <time>2019-04-20T15:25:40Z</time>
      </trkpt>
      <trkpt lat="36.830954063916" lon="-2.457085923972">
        <ele>0</ele>
        <time>2019-04-20T15:25:46Z</time>
      </trkpt>
      <trkpt lat="36.830721633829" lon="-2.457046361404">
        <ele>0</ele>
        <time>2019-04-20T15:25:51Z</time>
      </trkpt>
      <trkpt lat="36.830635635535" lon="-2.45699389071">
        <ele>0</ele>
        <time>2019-04-20T15:25:53Z</time>
      </trkpt>
      <trkpt lat="36.830467243164" lon="-2.456913089194">
        <ele>0</ele>
        <time>2019-04-20T15:25:58Z</time>
      </trkpt>
      <trkpt lat="36.83033430623" lon="-2.456767747048">
        <ele>0</ele>
        <time>2019-04-20T15:26:04Z</time>
      </trkpt>
      <trkpt lat="36.83021863601" lon="-2.456615364106">
        <ele>0</ele>
        <time>2019-04-20T15:26:10Z</time>
      </trkpt>
      <trkpt lat="36.830109922767" lon="-2.456470524874">
        <ele>0</ele>
        <time>2019-04-20T15:26:16Z</time>
      </trkpt>
      <trkpt lat="36.83003171964" lon="-2.456330211868">
        <ele>0</ele>
        <time>2019-04-20T15:26:22Z</time>
      </trkpt>
      <trkpt lat="36.829996767117" lon="-2.456298025372">
        <ele>0</ele>
        <time>2019-04-20T15:26:24Z</time>
      </trkpt>
      <trkpt lat="36.829944799337" lon="-2.456209093413">
        <ele>0</ele>
        <time>2019-04-20T15:26:28Z</time>
      </trkpt>
      <trkpt lat="36.829914289221" lon="-2.456169530845">
        <ele>0</ele>
        <time>2019-04-20T15:26:30Z</time>
      </trkpt>
      <trkpt lat="36.829839355035" lon="-2.456037599739">
        <ele>0</ele>
        <time>2019-04-20T15:26:36Z</time>
      </trkpt>
      <trkpt lat="36.829749584886" lon="-2.455872727766">
        <ele>0</ele>
        <time>2019-04-20T15:26:42Z</time>
      </trkpt>
      <trkpt lat="36.829698371477" lon="-2.455793686449">
        <ele>0</ele>
        <time>2019-04-20T15:26:45Z</time>
      </trkpt>
      <trkpt lat="36.829608349871" lon="-2.45564440481">
        <ele>0</ele>
        <time>2019-04-20T15:26:51Z</time>
      </trkpt>
      <trkpt lat="36.829534253875" lon="-2.455506857831">
        <ele>0</ele>
        <time>2019-04-20T15:26:57Z</time>
      </trkpt>
      <trkpt lat="36.829450686332" lon="-2.455354139613">
        <ele>0</ele>
        <time>2019-04-20T15:27:03Z</time>
      </trkpt>
      <trkpt lat="36.829365610047" lon="-2.455183819405">
        <ele>0</ele>
        <time>2019-04-20T15:27:09Z</time>
      </trkpt>
      <trkpt lat="36.829258237908" lon="-2.455013163921">
        <ele>0</ele>
        <time>2019-04-20T15:27:15Z</time>
      </trkpt>
      <trkpt lat="36.829152290692" lon="-2.454829851768">
        <ele>0</ele>
        <time>2019-04-20T15:27:21Z</time>
      </trkpt>
      <trkpt lat="36.829038296852" lon="-2.454630614005">
        <ele>0</ele>
        <time>2019-04-20T15:27:27Z</time>
      </trkpt>
      <trkpt lat="36.828944754848" lon="-2.454440931608">
        <ele>0</ele>
        <time>2019-04-20T15:27:33Z</time>
      </trkpt>
      <trkpt lat="36.828858840373" lon="-2.454284609173">
        <ele>0</ele>
        <time>2019-04-20T15:27:39Z</time>
      </trkpt>
      <trkpt lat="36.828716683349" lon="-2.454083778849">
        <ele>0</ele>
        <time>2019-04-20T15:27:48Z</time>
      </trkpt>
      <trkpt lat="36.828632109978" lon="-2.453947740612">
        <ele>0</ele>
        <time>2019-04-20T15:27:54Z</time>
      </trkpt>
      <trkpt lat="36.82853219773" lon="-2.453798961887">
        <ele>0</ele>
        <time>2019-04-20T15:28:00Z</time>
      </trkpt>
      <trkpt lat="36.828512164989" lon="-2.453775827843">
        <ele>0</ele>
        <time>2019-04-20T15:28:01Z</time>
      </trkpt>
      <trkpt lat="36.828413090931" lon="-2.453602657789">
        <ele>0</ele>
        <time>2019-04-20T15:28:07Z</time>
      </trkpt>
      <trkpt lat="36.828314603606" lon="-2.45342571588">
        <ele>0</ele>
        <time>2019-04-20T15:28:13Z</time>
      </trkpt>
      <trkpt lat="36.828202537603" lon="-2.453286408702">
        <ele>0</ele>
        <time>2019-04-20T15:28:19Z</time>
      </trkpt>
      <trkpt lat="36.828085945374" lon="-2.453152885035">
        <ele>0</ele>
        <time>2019-04-20T15:28:25Z</time>
      </trkpt>
      <trkpt lat="36.827994247388" lon="-2.452968650873">
        <ele>0</ele>
        <time>2019-04-20T15:28:31Z</time>
      </trkpt>
      <trkpt lat="36.827918475012" lon="-2.452825404202">
        <ele>0</ele>
        <time>2019-04-20T15:28:36Z</time>
      </trkpt>
      <trkpt lat="36.82781638347" lon="-2.452643516972">
        <ele>0</ele>
        <time>2019-04-20T15:28:42Z</time>
      </trkpt>
      <trkpt lat="36.8277468137" lon="-2.452532708254">
        <ele>0</ele>
        <time>2019-04-20T15:28:46Z</time>
      </trkpt>
      <trkpt lat="36.827653355515" lon="-2.452351407757">
        <ele>0</ele>
        <time>2019-04-20T15:28:52Z</time>
      </trkpt>
      <trkpt lat="36.827594346939" lon="-2.452279491055">
        <ele>0</ele>
        <time>2019-04-20T15:28:55Z</time>
      </trkpt>
      <trkpt lat="36.827473312303" lon="-2.452126437561">
        <ele>0</ele>
        <time>2019-04-20T15:29:01Z</time>
      </trkpt>
      <trkpt lat="36.827368287096" lon="-2.451957039362">
        <ele>0</ele>
        <time>2019-04-20T15:29:07Z</time>
      </trkpt>
      <trkpt lat="36.827301231896" lon="-2.451740702523">
        <ele>0</ele>
        <time>2019-04-20T15:29:13Z</time>
      </trkpt>
      <trkpt lat="36.827220011285" lon="-2.45155822856">
        <ele>0</ele>
        <time>2019-04-20T15:29:19Z</time>
      </trkpt>
      <trkpt lat="36.827106352721" lon="-2.451427219463">
        <ele>0</ele>
        <time>2019-04-20T15:29:25Z</time>
      </trkpt>
      <trkpt lat="36.827004344998" lon="-2.451269388286">
        <ele>0</ele>
        <time>2019-04-20T15:29:31Z</time>
      </trkpt>
      <trkpt lat="36.826923794939" lon="-2.451106108874">
        <ele>0</ele>
        <time>2019-04-20T15:29:37Z</time>
      </trkpt>
      <trkpt lat="36.826831594039" lon="-2.450930256612">
        <ele>0</ele>
        <time>2019-04-20T15:29:43Z</time>
      </trkpt>
      <trkpt lat="36.826750792523" lon="-2.450770497598">
        <ele>0</ele>
        <time>2019-04-20T15:29:49Z</time>
      </trkpt>
      <trkpt lat="36.826648533343" lon="-2.450633453533">
        <ele>0</ele>
        <time>2019-04-20T15:29:55Z</time>
      </trkpt>
      <trkpt lat="36.826545268335" lon="-2.450490709776">
        <ele>0</ele>
        <time>2019-04-20T15:30:01Z</time>
      </trkpt>
      <trkpt lat="36.826445775182" lon="-2.450374285185">
        <ele>0</ele>
        <time>2019-04-20T15:30:07Z</time>
      </trkpt>
      <trkpt lat="36.826320968691" lon="-2.450247718495">
        <ele>0</ele>
        <time>2019-04-20T15:30:13Z</time>
      </trkpt>
      <trkpt lat="36.826302947606" lon="-2.450217292198">
        <ele>0</ele>
        <time>2019-04-20T15:30:14Z</time>
      </trkpt>
      <trkpt lat="36.826216362579" lon="-2.450083600893">
        <ele>0</ele>
        <time>2019-04-20T15:30:19Z</time>
      </trkpt>
      <trkpt lat="36.826116617969" lon="-2.449913280685">
        <ele>0</ele>
        <time>2019-04-20T15:30:25Z</time>
      </trkpt>
      <trkpt lat="36.826010419296" lon="-2.44975528187">
        <ele>0</ele>
        <time>2019-04-20T15:30:31Z</time>
      </trkpt>
      <trkpt lat="36.825927606124" lon="-2.449593008286">
        <ele>0</ele>
        <time>2019-04-20T15:30:37Z</time>
      </trkpt>
      <trkpt lat="36.825851330834" lon="-2.449430483245">
        <ele>0</ele>
        <time>2019-04-20T15:30:43Z</time>
      </trkpt>
      <trkpt lat="36.825780000865" lon="-2.449230155835">
        <ele>0</ele>
        <time>2019-04-20T15:30:49Z</time>
      </trkpt>
      <trkpt lat="36.825662905722" lon="-2.449059667989">
        <ele>0</ele>
        <time>2019-04-20T15:30:55Z</time>
      </trkpt>
      <trkpt lat="36.825554024841" lon="-2.448906698314">
        <ele>0</ele>
        <time>2019-04-20T15:31:01Z</time>
      </trkpt>
      <trkpt lat="36.825467188357" lon="-2.448725565455">
        <ele>0</ele>
        <time>2019-04-20T15:31:07Z</time>
      </trkpt>
      <trkpt lat="36.825391164524" lon="-2.448583576069">
        <ele>0</ele>
        <time>2019-04-20T15:31:13Z</time>
      </trkpt>
      <trkpt lat="36.825296029959" lon="-2.448436222267">
        <ele>0</ele>
        <time>2019-04-20T15:31:19Z</time>
      </trkpt>
      <trkpt lat="36.825188322544" lon="-2.448293646148">
        <ele>0</ele>
        <time>2019-04-20T15:31:25Z</time>
      </trkpt>
      <trkpt lat="36.825089835219" lon="-2.448122990664">
        <ele>0</ele>
        <time>2019-04-20T15:31:31Z</time>
      </trkpt>
      <trkpt lat="36.824989000962" lon="-2.447944540013">
        <ele>0</ele>
        <time>2019-04-20T15:31:37Z</time>
      </trkpt>
      <trkpt lat="36.824895961872" lon="-2.447793665813">
        <ele>0</ele>
        <time>2019-04-20T15:31:43Z</time>
      </trkpt>
      <trkpt lat="36.824871738181" lon="-2.44768998171">
        <ele>0</ele>
        <time>2019-04-20T15:31:47Z</time>
      </trkpt>
      <trkpt lat="36.824782470946" lon="-2.447529635963">
        <ele>0</ele>
        <time>2019-04-20T15:31:53Z</time>
      </trkpt>
      <trkpt lat="36.824714577556" lon="-2.447361159773">
        <ele>0</ele>
        <time>2019-04-20T15:31:59Z</time>
      </trkpt>
      <trkpt lat="36.824646181252" lon="-2.447230234495">
        <ele>0</ele>
        <time>2019-04-20T15:32:05Z</time>
      </trkpt>
      <trkpt lat="36.824580383337" lon="-2.447118671406">
        <ele>0</ele>
        <time>2019-04-20T15:32:11Z</time>
      </trkpt>
      <trkpt lat="36.824470496628" lon="-2.446984561006">
        <ele>0</ele>
        <time>2019-04-20T15:32:17Z</time>
      </trkpt>
      <trkpt lat="36.824420624323" lon="-2.446899819997">
        <ele>0</ele>
        <time>2019-04-20T15:32:20Z</time>
      </trkpt>
      <trkpt lat="36.824364884688" lon="-2.44678725108">
        <ele>0</ele>
        <time>2019-04-20T15:32:24Z</time>
      </trkpt>
      <trkpt lat="36.824270253037" lon="-2.446647776264">
        <ele>0</ele>
        <time>2019-04-20T15:32:30Z</time>
      </trkpt>
      <trkpt lat="36.824122061045" lon="-2.446487849612">
        <ele>0</ele>
        <time>2019-04-20T15:32:36Z</time>
      </trkpt>
      <trkpt lat="36.823999852943" lon="-2.446321552716">
        <ele>0</ele>
        <time>2019-04-20T15:32:42Z</time>
      </trkpt>
      <trkpt lat="36.823882171067" lon="-2.446154836725">
        <ele>0</ele>
        <time>2019-04-20T15:32:48Z</time>
      </trkpt>
      <trkpt lat="36.823766836123" lon="-2.445991976408">
        <ele>0</ele>
        <time>2019-04-20T15:32:54Z</time>
      </trkpt>
      <trkpt lat="36.823692069575" lon="-2.445836575982">
        <ele>0</ele>
        <time>2019-04-20T15:33:00Z</time>
      </trkpt>
      <trkpt lat="36.823601461236" lon="-2.445672542199">
        <ele>0</ele>
        <time>2019-04-20T15:33:06Z</time>
      </trkpt>
      <trkpt lat="36.823486126292" lon="-2.44549392391">
        <ele>0</ele>
        <time>2019-04-20T15:33:12Z</time>
      </trkpt>
      <trkpt lat="36.823376742497" lon="-2.445321927322">
        <ele>0</ele>
        <time>2019-04-20T15:33:18Z</time>
      </trkpt>
      <trkpt lat="36.823246655409" lon="-2.445138028436">
        <ele>0</ele>
        <time>2019-04-20T15:33:25Z</time>
      </trkpt>
      <trkpt lat="36.823171302128" lon="-2.44503208122">
        <ele>0</ele>
        <time>2019-04-20T15:33:29Z</time>
      </trkpt>
      <trkpt lat="36.823062840342" lon="-2.444873914767">
        <ele>0</ele>
        <time>2019-04-20T15:33:35Z</time>
      </trkpt>
      <trkpt lat="36.822970052709" lon="-2.444752880131">
        <ele>0</ele>
        <time>2019-04-20T15:33:40Z</time>
      </trkpt>
      <trkpt lat="36.82286435695" lon="-2.444585242131">
        <ele>0</ele>
        <time>2019-04-20T15:33:46Z</time>
      </trkpt>
      <trkpt lat="36.82276545053" lon="-2.444444174754">
        <ele>0</ele>
        <time>2019-04-20T15:33:52Z</time>
      </trkpt>
      <trkpt lat="36.822736030061" lon="-2.444267819578">
        <ele>0</ele>
        <time>2019-04-20T15:33:58Z</time>
      </trkpt>
      <trkpt lat="36.822693450009" lon="-2.44417796561">
        <ele>0</ele>
        <time>2019-04-20T15:34:01Z</time>
      </trkpt>
      <trkpt lat="36.822589598268" lon="-2.444056260422">
        <ele>0</ele>
        <time>2019-04-20T15:34:07Z</time>
      </trkpt>
      <trkpt lat="36.822506868915" lon="-2.443949391197">
        <ele>0</ele>
        <time>2019-04-20T15:34:13Z</time>
      </trkpt>
      <trkpt lat="36.822490859486" lon="-2.443923910221">
        <ele>0</ele>
        <time>2019-04-20T15:34:14Z</time>
      </trkpt>
      <trkpt lat="36.822471832573" lon="-2.443895160304">
        <ele>0</ele>
        <time>2019-04-20T15:34:15Z</time>
      </trkpt>
      <trkpt lat="36.822395976378" lon="-2.443711764332">
        <ele>0</ele>
        <time>2019-04-20T15:34:21Z</time>
      </trkpt>
      <trkpt lat="36.822289610067" lon="-2.443544042513">
        <ele>0</ele>
        <time>2019-04-20T15:34:27Z</time>
      </trkpt>
      <trkpt lat="36.82216865925" lon="-2.443377158884">
        <ele>0</ele>
        <time>2019-04-20T15:34:33Z</time>
      </trkpt>
      <trkpt lat="36.822096491091" lon="-2.443274061514">
        <ele>0</ele>
        <time>2019-04-20T15:34:37Z</time>
      </trkpt>
      <trkpt lat="36.821997836128" lon="-2.443132491223">
        <ele>0</ele>
        <time>2019-04-20T15:34:43Z</time>
      </trkpt>
      <trkpt lat="36.821980234138" lon="-2.443104411858">
        <ele>0</ele>
        <time>2019-04-20T15:34:44Z</time>
      </trkpt>
      <trkpt lat="36.821910245273" lon="-2.44297767753">
        <ele>0</ele>
        <time>2019-04-20T15:34:50Z</time>
      </trkpt>
      <trkpt lat="36.821800274745" lon="-2.442836358696">
        <ele>0</ele>
        <time>2019-04-20T15:34:56Z</time>
      </trkpt>
      <trkpt lat="36.821667086354" lon="-2.442637623847">
        <ele>0</ele>
        <time>2019-04-20T15:35:02Z</time>
      </trkpt>
      <trkpt lat="36.82160455738" lon="-2.442422711931">
        <ele>0</ele>
        <time>2019-04-20T15:35:08Z</time>
      </trkpt>
      <trkpt lat="36.821483606563" lon="-2.442252559361">
        <ele>0</ele>
        <time>2019-04-20T15:35:14Z</time>
      </trkpt>
      <trkpt lat="36.82146122689" lon="-2.442231017878">
        <ele>0</ele>
        <time>2019-04-20T15:35:15Z</time>
      </trkpt>
      <trkpt lat="36.821339437883" lon="-2.442165890515">
        <ele>0</ele>
        <time>2019-04-20T15:35:21Z</time>
      </trkpt>
      <trkpt lat="36.821251260295" lon="-2.442040078196">
        <ele>0</ele>
        <time>2019-04-20T15:35:27Z</time>
      </trkpt>
      <trkpt lat="36.821139026654" lon="-2.441915439343">
        <ele>0</ele>
        <time>2019-04-20T15:35:33Z</time>
      </trkpt>
      <trkpt lat="36.821120586474" lon="-2.441889287815">
        <ele>0</ele>
        <time>2019-04-20T15:35:34Z</time>
      </trkpt>
      <trkpt lat="36.821010196851" lon="-2.441734977036">
        <ele>0</ele>
        <time>2019-04-20T15:35:40Z</time>
      </trkpt>
      <trkpt lat="36.820876673184" lon="-2.441609919088">
        <ele>0</ele>
        <time>2019-04-20T15:35:46Z</time>
      </trkpt>
      <trkpt lat="36.820822023196" lon="-2.441551413426">
        <ele>0</ele>
        <time>2019-04-20T15:35:49Z</time>
      </trkpt>
      <trkpt lat="36.820716243618" lon="-2.441416548655">
        <ele>0</ele>
        <time>2019-04-20T15:35:55Z</time>
      </trkpt>
      <trkpt lat="36.82060208214" lon="-2.441280510418">
        <ele>0</ele>
        <time>2019-04-20T15:36:01Z</time>
      </trkpt>
      <trkpt lat="36.82048389735" lon="-2.441134916815">
        <ele>0</ele>
        <time>2019-04-20T15:36:07Z</time>
      </trkpt>
      <trkpt lat="36.820375016469" lon="-2.441015390921">
        <ele>0</ele>
        <time>2019-04-20T15:36:13Z</time>
      </trkpt>
      <trkpt lat="36.820285330139" lon="-2.440877257209">
        <ele>0</ele>
        <time>2019-04-20T15:36:19Z</time>
      </trkpt>
      <trkpt lat="36.820189357384" lon="-2.440745996655">
        <ele>0</ele>
        <time>2019-04-20T15:36:25Z</time>
      </trkpt>
      <trkpt lat="36.820091875887" lon="-2.440612053893">
        <ele>0</ele>
        <time>2019-04-20T15:36:31Z</time>
      </trkpt>
      <trkpt lat="36.820073603345" lon="-2.440587411107">
        <ele>0</ele>
        <time>2019-04-20T15:36:32Z</time>
      </trkpt>
      <trkpt lat="36.819959777143" lon="-2.440417174718">
        <ele>0</ele>
        <time>2019-04-20T15:36:38Z</time>
      </trkpt>
      <trkpt lat="36.819836479394" lon="-2.440261774292">
        <ele>0</ele>
        <time>2019-04-20T15:36:44Z</time>
      </trkpt>
      <trkpt lat="36.819728604341" lon="-2.440096399405">
        <ele>0</ele>
        <time>2019-04-20T15:36:50Z</time>
      </trkpt>
      <trkpt lat="36.819615197234" lon="-2.439935383106">
        <ele>0</ele>
        <time>2019-04-20T15:36:56Z</time>
      </trkpt>
      <trkpt lat="36.819509417656" lon="-2.43976657164">
        <ele>0</ele>
        <time>2019-04-20T15:37:02Z</time>
      </trkpt>
      <trkpt lat="36.819404476268" lon="-2.439592395758">
        <ele>0</ele>
        <time>2019-04-20T15:37:08Z</time>
      </trkpt>
      <trkpt lat="36.819306743314" lon="-2.439468595095">
        <ele>0</ele>
        <time>2019-04-20T15:37:14Z</time>
      </trkpt>
      <trkpt lat="36.819207166342" lon="-2.439348147192">
        <ele>0</ele>
        <time>2019-04-20T15:37:20Z</time>
      </trkpt>
      <trkpt lat="36.819100297117" lon="-2.439229459488">
        <ele>0</ele>
        <time>2019-04-20T15:37:26Z</time>
      </trkpt>
      <trkpt lat="36.819056962694" lon="-2.439186376522">
        <ele>0</ele>
        <time>2019-04-20T15:37:28Z</time>
      </trkpt>
      <trkpt lat="36.818986638553" lon="-2.439085458446">
        <ele>0</ele>
        <time>2019-04-20T15:37:32Z</time>
      </trkpt>
      <trkpt lat="36.8188871454" lon="-2.438914802962">
        <ele>0</ele>
        <time>2019-04-20T15:37:38Z</time>
      </trkpt>
      <trkpt lat="36.818784383306" lon="-2.438757558518">
        <ele>0</ele>
        <time>2019-04-20T15:37:44Z</time>
      </trkpt>
      <trkpt lat="36.818681537393" lon="-2.43858891469">
        <ele>0</ele>
        <time>2019-04-20T15:37:50Z</time>
      </trkpt>
      <trkpt lat="36.81855941311" lon="-2.43845983343">
        <ele>0</ele>
        <time>2019-04-20T15:37:56Z</time>
      </trkpt>
      <trkpt lat="36.818442401786" lon="-2.438356903698">
        <ele>0</ele>
        <time>2019-04-20T15:38:02Z</time>
      </trkpt>
      <trkpt lat="36.818320445141" lon="-2.438229247361">
        <ele>0</ele>
        <time>2019-04-20T15:38:08Z</time>
      </trkpt>
      <trkpt lat="36.818221035807" lon="-2.438066554682">
        <ele>0</ele>
        <time>2019-04-20T15:38:14Z</time>
      </trkpt>
      <trkpt lat="36.818139563739" lon="-2.43791081898">
        <ele>0</ele>
        <time>2019-04-20T15:38:20Z</time>
      </trkpt>
      <trkpt lat="36.818125817423" lon="-2.437885338004">
        <ele>0</ele>
        <time>2019-04-20T15:38:21Z</time>
      </trkpt>
      <trkpt lat="36.818090781081" lon="-2.437685681146">
        <ele>0</ele>
        <time>2019-04-20T15:38:27Z</time>
      </trkpt>
      <trkpt lat="36.817976535784" lon="-2.437558695361">
        <ele>0</ele>
        <time>2019-04-20T15:38:33Z</time>
      </trkpt>
      <trkpt lat="36.817838485891" lon="-2.437474038171">
        <ele>0</ele>
        <time>2019-04-20T15:38:39Z</time>
      </trkpt>
      <trkpt lat="36.817756175633" lon="-2.437306651628">
        <ele>0</ele>
        <time>2019-04-20T15:38:45Z</time>
      </trkpt>
      <trkpt lat="36.817646456562" lon="-2.437138594533">
        <ele>0</ele>
        <time>2019-04-20T15:38:51Z</time>
      </trkpt>
      <trkpt lat="36.817540425527" lon="-2.436962658452">
        <ele>0</ele>
        <time>2019-04-20T15:38:57Z</time>
      </trkpt>
      <trkpt lat="36.817392149716" lon="-2.43674824945">
        <ele>0</ele>
        <time>2019-04-20T15:39:04Z</time>
      </trkpt>
      <trkpt lat="36.817324675421" lon="-2.436632327773">
        <ele>0</ele>
        <time>2019-04-20T15:39:08Z</time>
      </trkpt>
      <trkpt lat="36.817226858648" lon="-2.436461001737">
        <ele>0</ele>
        <time>2019-04-20T15:39:14Z</time>
      </trkpt>
      <trkpt lat="36.817131053531" lon="-2.436306690958">
        <ele>0</ele>
        <time>2019-04-20T15:39:20Z</time>
      </trkpt>
      <trkpt lat="36.817025106315" lon="-2.436165288305">
        <ele>0</ele>
        <time>2019-04-20T15:39:26Z</time>
      </trkpt>
      <trkpt lat="36.816913375588" lon="-2.436007708585">
        <ele>0</ele>
        <time>2019-04-20T15:39:32Z</time>
      </trkpt>
      <trkpt lat="36.816803572698" lon="-2.435850045046">
        <ele>0</ele>
        <time>2019-04-20T15:39:38Z</time>
      </trkpt>
      <trkpt lat="36.816694775636" lon="-2.435698584113">
        <ele>0</ele>
        <time>2019-04-20T15:39:44Z</time>
      </trkpt>
      <trkpt lat="36.816594779569" lon="-2.43555969603">
        <ele>0</ele>
        <time>2019-04-20T15:39:50Z</time>
      </trkpt>
      <trkpt lat="36.816478774073" lon="-2.435412426047">
        <ele>0</ele>
        <time>2019-04-20T15:39:56Z</time>
      </trkpt>
      <trkpt lat="36.816376179617" lon="-2.435268508824">
        <ele>0</ele>
        <time>2019-04-20T15:40:02Z</time>
      </trkpt>
      <trkpt lat="36.816347345881" lon="-2.435222240736">
        <ele>0</ele>
        <time>2019-04-20T15:40:04Z</time>
      </trkpt>
      <trkpt lat="36.816236956258" lon="-2.43507103126">
        <ele>0</ele>
        <time>2019-04-20T15:40:10Z</time>
      </trkpt>
      <trkpt lat="36.816144168625" lon="-2.434936753222">
        <ele>0</ele>
        <time>2019-04-20T15:40:16Z</time>
      </trkpt>
      <trkpt lat="36.816098319632" lon="-2.434818065518">
        <ele>0</ele>
        <time>2019-04-20T15:40:21Z</time>
      </trkpt>
      <trkpt lat="36.816121453676" lon="-2.434791997809">
        <ele>0</ele>
        <time>2019-04-20T15:40:23Z</time>
      </trkpt>
      <trkpt lat="36.816141402598" lon="-2.434758973123">
        <ele>0</ele>
        <time>2019-04-20T15:40:25Z</time>
      </trkpt>
      <trkpt lat="36.816129667938" lon="-2.434577672626">
        <ele>0</ele>
        <time>2019-04-20T15:40:31Z</time>
      </trkpt>
      <trkpt lat="36.816131009042" lon="-2.434545402311">
        <ele>0</ele>
        <time>2019-04-20T15:40:32Z</time>
      </trkpt>
      <trkpt lat="36.816134110345" lon="-2.434337950286">
        <ele>0</ele>
        <time>2019-04-20T15:40:38Z</time>
      </trkpt>
      <trkpt lat="36.816126482816" lon="-2.4341624333">
        <ele>0</ele>
        <time>2019-04-20T15:40:43Z</time>
      </trkpt>
      <trkpt lat="36.816123046237" lon="-2.433954143085">
        <ele>0</ele>
        <time>2019-04-20T15:40:49Z</time>
      </trkpt>
      <trkpt lat="36.816107372084" lon="-2.43375674934">
        <ele>0</ele>
        <time>2019-04-20T15:40:55Z</time>
      </trkpt>
      <trkpt lat="36.816097732899" lon="-2.433555919016">
        <ele>0</ele>
        <time>2019-04-20T15:41:01Z</time>
      </trkpt>
      <trkpt lat="36.816074850312" lon="-2.433373780329">
        <ele>0</ele>
        <time>2019-04-20T15:41:07Z</time>
      </trkpt>
      <trkpt lat="36.816058086512" lon="-2.433177895326">
        <ele>0</ele>
        <time>2019-04-20T15:41:13Z</time>
      </trkpt>
      <trkpt lat="36.816046603309" lon="-2.432984860169">
        <ele>0</ele>
        <time>2019-04-20T15:41:19Z</time>
      </trkpt>
      <trkpt lat="36.816034449554" lon="-2.43279031627">
        <ele>0</ele>
        <time>2019-04-20T15:41:25Z</time>
      </trkpt>
      <trkpt lat="36.816031599708" lon="-2.432592838706">
        <ele>0</ele>
        <time>2019-04-20T15:41:31Z</time>
      </trkpt>
      <trkpt lat="36.816007292198" lon="-2.43240055792">
        <ele>0</ele>
        <time>2019-04-20T15:41:37Z</time>
      </trkpt>
      <trkpt lat="36.816003687981" lon="-2.432193105895">
        <ele>0</ele>
        <time>2019-04-20T15:41:43Z</time>
      </trkpt>
      <trkpt lat="36.815993462063" lon="-2.431997556168">
        <ele>0</ele>
        <time>2019-04-20T15:41:49Z</time>
      </trkpt>
      <trkpt lat="36.815975524797" lon="-2.431784069175">
        <ele>0</ele>
        <time>2019-04-20T15:41:55Z</time>
      </trkpt>
      <trkpt lat="36.815969741286" lon="-2.431566307413">
        <ele>0</ele>
        <time>2019-04-20T15:42:01Z</time>
      </trkpt>
      <trkpt lat="36.815954905323" lon="-2.431357598103">
        <ele>0</ele>
        <time>2019-04-20T15:42:07Z</time>
      </trkpt>
      <trkpt lat="36.815943170663" lon="-2.431153498838">
        <ele>0</ele>
        <time>2019-04-20T15:42:13Z</time>
      </trkpt>
      <trkpt lat="36.815941913378" lon="-2.430958452025">
        <ele>0</ele>
        <time>2019-04-20T15:42:19Z</time>
      </trkpt>
      <trkpt lat="36.815940823731" lon="-2.430778324994">
        <ele>0</ele>
        <time>2019-04-20T15:42:25Z</time>
      </trkpt>
      <trkpt lat="36.815936800419" lon="-2.430720908979">
        <ele>0</ele>
        <time>2019-04-20T15:42:27Z</time>
      </trkpt>
      <trkpt lat="36.815926825958" lon="-2.430541033405">
        <ele>0</ele>
        <time>2019-04-20T15:42:33Z</time>
      </trkpt>
      <trkpt lat="36.815930513994" lon="-2.430343220565">
        <ele>0</ele>
        <time>2019-04-20T15:42:39Z</time>
      </trkpt>
      <trkpt lat="36.815933866754" lon="-2.43014415044">
        <ele>0</ele>
        <time>2019-04-20T15:42:45Z</time>
      </trkpt>
      <trkpt lat="36.815932777107" lon="-2.430080112724">
        <ele>0</ele>
        <time>2019-04-20T15:42:47Z</time>
      </trkpt>
      <trkpt lat="36.815917270592" lon="-2.429881461694">
        <ele>0</ele>
        <time>2019-04-20T15:42:53Z</time>
      </trkpt>
      <trkpt lat="36.81591492366" lon="-2.429771742623">
        <ele>0</ele>
        <time>2019-04-20T15:42:56Z</time>
      </trkpt>
      <trkpt lat="36.815894136548" lon="-2.429574600335">
        <ele>0</ele>
        <time>2019-04-20T15:43:02Z</time>
      </trkpt>
      <trkpt lat="36.815881144603" lon="-2.429372512726">
        <ele>0</ele>
        <time>2019-04-20T15:43:08Z</time>
      </trkpt>
      <trkpt lat="36.815872008332" lon="-2.429162546131">
        <ele>0</ele>
        <time>2019-04-20T15:43:14Z</time>
      </trkpt>
      <trkpt lat="36.815864129346" lon="-2.428964062739">
        <ele>0</ele>
        <time>2019-04-20T15:43:20Z</time>
      </trkpt>
      <trkpt lat="36.815849377202" lon="-2.428775218532">
        <ele>0</ele>
        <time>2019-04-20T15:43:26Z</time>
      </trkpt>
      <trkpt lat="36.815838145456" lon="-2.428575142579">
        <ele>0</ele>
        <time>2019-04-20T15:43:32Z</time>
      </trkpt>
      <trkpt lat="36.815821633113" lon="-2.428385544001">
        <ele>0</ele>
        <time>2019-04-20T15:43:38Z</time>
      </trkpt>
      <trkpt lat="36.815817274525" lon="-2.428187144428">
        <ele>0</ele>
        <time>2019-04-20T15:43:44Z</time>
      </trkpt>
      <trkpt lat="36.815811155738" lon="-2.42797910567">
        <ele>0</ele>
        <time>2019-04-20T15:43:50Z</time>
      </trkpt>
      <trkpt lat="36.815804534037" lon="-2.427779867907">
        <ele>0</ele>
        <time>2019-04-20T15:43:56Z</time>
      </trkpt>
      <trkpt lat="36.815785088029" lon="-2.427590772243">
        <ele>0</ele>
        <time>2019-04-20T15:44:02Z</time>
      </trkpt>
      <trkpt lat="36.815777963414" lon="-2.427487339597">
        <ele>0</ele>
        <time>2019-04-20T15:44:05Z</time>
      </trkpt>
      <trkpt lat="36.815762875994" lon="-2.427270416025">
        <ele>0</ele>
        <time>2019-04-20T15:44:11Z</time>
      </trkpt>
      <trkpt lat="36.815756254293" lon="-2.42720210354">
        <ele>0</ele>
        <time>2019-04-20T15:44:13Z</time>
      </trkpt>
      <trkpt lat="36.815705795255" lon="-2.426993729506">
        <ele>0</ele>
        <time>2019-04-20T15:44:19Z</time>
      </trkpt>
      <trkpt lat="36.815688528541" lon="-2.426900271321">
        <ele>0</ele>
        <time>2019-04-20T15:44:22Z</time>
      </trkpt>
      <trkpt lat="36.81566095209" lon="-2.42670338049">
        <ele>0</ele>
        <time>2019-04-20T15:44:28Z</time>
      </trkpt>
      <trkpt lat="36.815648798335" lon="-2.42650556765">
        <ele>0</ele>
        <time>2019-04-20T15:44:34Z</time>
      </trkpt>
      <trkpt lat="36.815634465286" lon="-2.426266515862">
        <ele>0</ele>
        <time>2019-04-20T15:44:41Z</time>
      </trkpt>
      <trkpt lat="36.815627843585" lon="-2.426070295583">
        <ele>0</ele>
        <time>2019-04-20T15:44:47Z</time>
      </trkpt>
      <trkpt lat="36.815615186916" lon="-2.425872985657">
        <ele>0</ele>
        <time>2019-04-20T15:44:53Z</time>
      </trkpt>
      <trkpt lat="36.815599931858" lon="-2.425675927188">
        <ele>0</ele>
        <time>2019-04-20T15:44:59Z</time>
      </trkpt>
      <trkpt lat="36.815582413687" lon="-2.425493788501">
        <ele>0</ele>
        <time>2019-04-20T15:45:05Z</time>
      </trkpt>
      <trkpt lat="36.815582665144" lon="-2.425462691652">
        <ele>0</ele>
        <time>2019-04-20T15:45:06Z</time>
      </trkpt>
      <trkpt lat="36.815558106177" lon="-2.425264878812">
        <ele>0</ele>
        <time>2019-04-20T15:45:12Z</time>
      </trkpt>
      <trkpt lat="36.815533966305" lon="-2.425060108995">
        <ele>0</ele>
        <time>2019-04-20T15:45:18Z</time>
      </trkpt>
      <trkpt lat="36.815506054578" lon="-2.424852740789">
        <ele>0</ele>
        <time>2019-04-20T15:45:24Z</time>
      </trkpt>
      <trkpt lat="36.815497672678" lon="-2.424724665357">
        <ele>0</ele>
        <time>2019-04-20T15:45:28Z</time>
      </trkpt>
      <trkpt lat="36.815492894995" lon="-2.424515201676">
        <ele>0</ele>
        <time>2019-04-20T15:45:34Z</time>
      </trkpt>
      <trkpt lat="36.815500690162" lon="-2.424299703027">
        <ele>0</ele>
        <time>2019-04-20T15:45:40Z</time>
      </trkpt>
      <trkpt lat="36.815522064007" lon="-2.424102812196">
        <ele>0</ele>
        <time>2019-04-20T15:45:46Z</time>
      </trkpt>
      <trkpt lat="36.815533211934" lon="-2.423904831718">
        <ele>0</ele>
        <time>2019-04-20T15:45:52Z</time>
      </trkpt>
      <trkpt lat="36.815544108404" lon="-2.423689668345">
        <ele>0</ele>
        <time>2019-04-20T15:45:58Z</time>
      </trkpt>
      <trkpt lat="36.815574115606" lon="-2.423495124446">
        <ele>0</ele>
        <time>2019-04-20T15:46:04Z</time>
      </trkpt>
      <trkpt lat="36.815619796961" lon="-2.423310722646">
        <ele>0</ele>
        <time>2019-04-20T15:46:10Z</time>
      </trkpt>
      <trkpt lat="36.815668160524" lon="-2.423127159036">
        <ele>0</ele>
        <time>2019-04-20T15:46:16Z</time>
      </trkpt>
      <trkpt lat="36.815637734227" lon="-2.422922640676">
        <ele>0</ele>
        <time>2019-04-20T15:46:22Z</time>
      </trkpt>
      <trkpt lat="36.815632621268" lon="-2.422882659013">
        <ele>0</ele>
        <time>2019-04-20T15:46:23Z</time>
      </trkpt>
      <trkpt lat="36.815626334843" lon="-2.422731617175">
        <ele>0</ele>
        <time>2019-04-20T15:46:28Z</time>
      </trkpt>
      <trkpt lat="36.815708226006" lon="-2.422582586993">
        <ele>0</ele>
        <time>2019-04-20T15:46:34Z</time>
      </trkpt>
      <trkpt lat="36.81579757706" lon="-2.42241855321">
        <ele>0</ele>
        <time>2019-04-20T15:46:40Z</time>
      </trkpt>
      <trkpt lat="36.81589396891" lon="-2.422253765056">
        <ele>0</ele>
        <time>2019-04-20T15:46:46Z</time>
      </trkpt>
      <trkpt lat="36.81598114067" lon="-2.422081014097">
        <ele>0</ele>
        <time>2019-04-20T15:46:52Z</time>
      </trkpt>
      <trkpt lat="36.816076610511" lon="-2.421922093273">
        <ele>0</ele>
        <time>2019-04-20T15:46:58Z</time>
      </trkpt>
      <trkpt lat="36.816173756732" lon="-2.421766273752">
        <ele>0</ele>
        <time>2019-04-20T15:47:04Z</time>
      </trkpt>
      <trkpt lat="36.816280877414" lon="-2.421603664892">
        <ele>0</ele>
        <time>2019-04-20T15:47:10Z</time>
      </trkpt>
      <trkpt lat="36.816377688359" lon="-2.421436865082">
        <ele>0</ele>
        <time>2019-04-20T15:47:16Z</time>
      </trkpt>
      <trkpt lat="36.816472068553" lon="-2.421266963969">
        <ele>0</ele>
        <time>2019-04-20T15:47:22Z</time>
      </trkpt>
      <trkpt lat="36.816567622213" lon="-2.421096895218">
        <ele>0</ele>
        <time>2019-04-20T15:47:28Z</time>
      </trkpt>
      <trkpt lat="36.816611124274" lon="-2.421013327675">
        <ele>0</ele>
        <time>2019-04-20T15:47:31Z</time>
      </trkpt>
      <trkpt lat="36.816706007382" lon="-2.420857759611">
        <ele>0</ele>
        <time>2019-04-20T15:47:37Z</time>
      </trkpt>
      <trkpt lat="36.816735427851" lon="-2.420803780175">
        <ele>0</ele>
        <time>2019-04-20T15:47:39Z</time>
      </trkpt>
      <trkpt lat="36.816820671774" lon="-2.420632035044">
        <ele>0</ele>
        <time>2019-04-20T15:47:45Z</time>
      </trkpt>
      <trkpt lat="36.816885799137" lon="-2.420464229406">
        <ele>0</ele>
        <time>2019-04-20T15:47:51Z</time>
      </trkpt>
      <trkpt lat="36.816952854337" lon="-2.42028535966">
        <ele>0</ele>
        <time>2019-04-20T15:47:57Z</time>
      </trkpt>
      <trkpt lat="36.817004067746" lon="-2.420115710004">
        <ele>0</ele>
        <time>2019-04-20T15:48:03Z</time>
      </trkpt>
      <trkpt lat="36.817073386059" lon="-2.419942288493">
        <ele>0</ele>
        <time>2019-04-20T15:48:09Z</time>
      </trkpt>
      <trkpt lat="36.817137591413" lon="-2.419760987996">
        <ele>0</ele>
        <time>2019-04-20T15:48:15Z</time>
      </trkpt>
      <trkpt lat="36.817212022685" lon="-2.419590751607">
        <ele>0</ele>
        <time>2019-04-20T15:48:21Z</time>
      </trkpt>
      <trkpt lat="36.817269187243" lon="-2.419409786386">
        <ele>0</ele>
        <time>2019-04-20T15:48:27Z</time>
      </trkpt>
      <trkpt lat="36.817283101197" lon="-2.419349604344">
        <ele>0</ele>
        <time>2019-04-20T15:48:29Z</time>
      </trkpt>
      <trkpt lat="36.817346049266" lon="-2.419162939431">
        <ele>0</ele>
        <time>2019-04-20T15:48:35Z</time>
      </trkpt>
      <trkpt lat="36.817402627091" lon="-2.418953056655">
        <ele>0</ele>
        <time>2019-04-20T15:48:41Z</time>
      </trkpt>
      <trkpt lat="36.817472113042" lon="-2.418742838603">
        <ele>0</ele>
        <time>2019-04-20T15:48:47Z</time>
      </trkpt>
      <trkpt lat="36.817541347536" lon="-2.418557179518">
        <ele>0</ele>
        <time>2019-04-20T15:48:53Z</time>
      </trkpt>
      <trkpt lat="36.817594153506" lon="-2.418361965067">
        <ele>0</ele>
        <time>2019-04-20T15:48:59Z</time>
      </trkpt>
      <trkpt lat="36.817653497358" lon="-2.418183682054">
        <ele>0</ele>
        <time>2019-04-20T15:49:05Z</time>
      </trkpt>
      <trkpt lat="36.81772289949" lon="-2.418000537539">
        <ele>0</ele>
        <time>2019-04-20T15:49:11Z</time>
      </trkpt>
      <trkpt lat="36.817772520338" lon="-2.417808592029">
        <ele>0</ele>
        <time>2019-04-20T15:49:17Z</time>
      </trkpt>
      <trkpt lat="36.817830774543" lon="-2.417619664003">
        <ele>0</ele>
        <time>2019-04-20T15:49:23Z</time>
      </trkpt>
      <trkpt lat="36.817894225526" lon="-2.417424952466">
        <ele>0</ele>
        <time>2019-04-20T15:49:29Z</time>
      </trkpt>
      <trkpt lat="36.817948456419" lon="-2.417237365544">
        <ele>0</ele>
        <time>2019-04-20T15:49:35Z</time>
      </trkpt>
      <trkpt lat="36.817998161086" lon="-2.417056065047">
        <ele>0</ele>
        <time>2019-04-20T15:49:41Z</time>
      </trkpt>
      <trkpt lat="36.818016685085" lon="-2.416964199423">
        <ele>0</ele>
        <time>2019-04-20T15:49:44Z</time>
      </trkpt>
      <trkpt lat="36.818065216286" lon="-2.416775271397">
        <ele>0</ele>
        <time>2019-04-20T15:49:50Z</time>
      </trkpt>
      <trkpt lat="36.818112071107" lon="-2.416582571516">
        <ele>0</ele>
        <time>2019-04-20T15:49:56Z</time>
      </trkpt>
      <trkpt lat="36.818135875703" lon="-2.416431613497">
        <ele>0</ele>
        <time>2019-04-20T15:50:02Z</time>
      </trkpt>
      <trkpt lat="36.818146772173" lon="-2.41640453996">
        <ele>0</ele>
        <time>2019-04-20T15:57:36Z</time>
      </trkpt>
      <trkpt lat="36.818145514888" lon="-2.416412670403">
        <ele>0</ele>
        <time>2019-04-20T15:57:37Z</time>
      </trkpt>
      <trkpt lat="36.818141743033" lon="-2.41651350466">
        <ele>0</ele>
        <time>2019-04-20T15:57:41Z</time>
      </trkpt>
      <trkpt lat="36.818102683379" lon="-2.416715592269">
        <ele>0</ele>
        <time>2019-04-20T15:57:47Z</time>
      </trkpt>
      <trkpt lat="36.818039316215" lon="-2.416928660167">
        <ele>0</ele>
        <time>2019-04-20T15:57:53Z</time>
      </trkpt>
      <trkpt lat="36.817978966535" lon="-2.417128233206">
        <ele>0</ele>
        <time>2019-04-20T15:57:59Z</time>
      </trkpt>
      <trkpt lat="36.817922304891" lon="-2.417318083241">
        <ele>0</ele>
        <time>2019-04-20T15:58:05Z</time>
      </trkpt>
      <trkpt lat="36.817866062342" lon="-2.417499467557">
        <ele>0</ele>
        <time>2019-04-20T15:58:11Z</time>
      </trkpt>
      <trkpt lat="36.817805461205" lon="-2.417684959004">
        <ele>0</ele>
        <time>2019-04-20T15:58:17Z</time>
      </trkpt>
      <trkpt lat="36.817759863669" lon="-2.417865253673">
        <ele>0</ele>
        <time>2019-04-20T15:58:23Z</time>
      </trkpt>
      <trkpt lat="36.817714014676" lon="-2.418010763457">
        <ele>0</ele>
        <time>2019-04-20T15:58:28Z</time>
      </trkpt>
      <trkpt lat="36.817654838462" lon="-2.418195835809">
        <ele>0</ele>
        <time>2019-04-20T15:58:34Z</time>
      </trkpt>
      <trkpt lat="36.817600439931" lon="-2.418382500722">
        <ele>0</ele>
        <time>2019-04-20T15:58:40Z</time>
      </trkpt>
      <trkpt lat="36.817544197382" lon="-2.41857712844">
        <ele>0</ele>
        <time>2019-04-20T15:58:46Z</time>
      </trkpt>
      <trkpt lat="36.817487703376" lon="-2.418751555779">
        <ele>0</ele>
        <time>2019-04-20T15:58:52Z</time>
      </trkpt>
      <trkpt lat="36.817424839126" lon="-2.418930760801">
        <ele>0</ele>
        <time>2019-04-20T15:58:58Z</time>
      </trkpt>
      <trkpt lat="36.817407237136" lon="-2.418989098825">
        <ele>0</ele>
        <time>2019-04-20T15:59:00Z</time>
      </trkpt>
      <trkpt lat="36.81734739037" lon="-2.41917391972">
        <ele>0</ele>
        <time>2019-04-20T15:59:06Z</time>
      </trkpt>
      <trkpt lat="36.817312102571" lon="-2.419298642392">
        <ele>0</ele>
        <time>2019-04-20T15:59:10Z</time>
      </trkpt>
      <trkpt lat="36.817255524746" lon="-2.419482206002">
        <ele>0</ele>
        <time>2019-04-20T15:59:16Z</time>
      </trkpt>
      <trkpt lat="36.817206909726" lon="-2.419651268925">
        <ele>0</ele>
        <time>2019-04-20T15:59:22Z</time>
      </trkpt>
      <trkpt lat="36.81715544486" lon="-2.419782864755">
        <ele>0</ele>
        <time>2019-04-20T15:59:27Z</time>
      </trkpt>
      <trkpt lat="36.817085623633" lon="-2.419957040637">
        <ele>0</ele>
        <time>2019-04-20T15:59:33Z</time>
      </trkpt>
      <trkpt lat="36.817037595346" lon="-2.420087798277">
        <ele>0</ele>
        <time>2019-04-20T15:59:37Z</time>
      </trkpt>
      <trkpt lat="36.816959224581" lon="-2.420276893941">
        <ele>0</ele>
        <time>2019-04-20T15:59:43Z</time>
      </trkpt>
      <trkpt lat="36.816885212404" lon="-2.420453165298">
        <ele>0</ele>
        <time>2019-04-20T15:59:49Z</time>
      </trkpt>
      <trkpt lat="36.816811032589" lon="-2.420629101379">
        <ele>0</ele>
        <time>2019-04-20T15:59:55Z</time>
      </trkpt>
      <trkpt lat="36.816777169713" lon="-2.420718200976">
        <ele>0</ele>
        <time>2019-04-20T15:59:58Z</time>
      </trkpt>
      <trkpt lat="36.8167078514" lon="-2.420896735446">
        <ele>0</ele>
        <time>2019-04-20T16:00:04Z</time>
      </trkpt>
      <trkpt lat="36.81662487059" lon="-2.421069486405">
        <ele>0</ele>
        <time>2019-04-20T16:00:10Z</time>
      </trkpt>
      <trkpt lat="36.816530071301" lon="-2.421249194341">
        <ele>0</ele>
        <time>2019-04-20T16:00:16Z</time>
      </trkpt>
      <trkpt lat="36.816496795158" lon="-2.421306694175">
        <ele>0</ele>
        <time>2019-04-20T16:00:18Z</time>
      </trkpt>
      <trkpt lat="36.816401409136" lon="-2.421474667451">
        <ele>0</ele>
        <time>2019-04-20T16:00:24Z</time>
      </trkpt>
      <trkpt lat="36.816307280399" lon="-2.421643730374">
        <ele>0</ele>
        <time>2019-04-20T16:00:30Z</time>
      </trkpt>
      <trkpt lat="36.816201919916" lon="-2.421820756102">
        <ele>0</ele>
        <time>2019-04-20T16:00:36Z</time>
      </trkpt>
      <trkpt lat="36.816104186962" lon="-2.421986298627">
        <ele>0</ele>
        <time>2019-04-20T16:00:42Z</time>
      </trkpt>
      <trkpt lat="36.816005029085" lon="-2.422143123976">
        <ele>0</ele>
        <time>2019-04-20T16:00:48Z</time>
      </trkpt>
      <trkpt lat="36.815915007479" lon="-2.422303469723">
        <ele>0</ele>
        <time>2019-04-20T16:00:54Z</time>
      </trkpt>
      <trkpt lat="36.815810233729" lon="-2.42247052099">
        <ele>0</ele>
        <time>2019-04-20T16:01:00Z</time>
      </trkpt>
      <trkpt lat="36.815709399472" lon="-2.422636398791">
        <ele>0</ele>
        <time>2019-04-20T16:01:06Z</time>
      </trkpt>
      <trkpt lat="36.815608397577" lon="-2.422799259108">
        <ele>0</ele>
        <time>2019-04-20T16:01:12Z</time>
      </trkpt>
      <trkpt lat="36.815498846144" lon="-2.422916270432">
        <ele>0</ele>
        <time>2019-04-20T16:01:18Z</time>
      </trkpt>
      <trkpt lat="36.815359455147" lon="-2.423005202391">
        <ele>0</ele>
        <time>2019-04-20T16:01:24Z</time>
      </trkpt>
      <trkpt lat="36.815232720819" lon="-2.423132439633">
        <ele>0</ele>
        <time>2019-04-20T16:01:30Z</time>
      </trkpt>
      <trkpt lat="36.815107159957" lon="-2.42328607986">
        <ele>0</ele>
        <time>2019-04-20T16:01:36Z</time>
      </trkpt>
      <trkpt lat="36.814993166117" lon="-2.423442234657">
        <ele>0</ele>
        <time>2019-04-20T16:01:42Z</time>
      </trkpt>
      <trkpt lat="36.814882022123" lon="-2.423583972586">
        <ele>0</ele>
        <time>2019-04-20T16:01:48Z</time>
      </trkpt>
      <trkpt lat="36.814763166781" lon="-2.423703666118">
        <ele>0</ele>
        <time>2019-04-20T16:01:54Z</time>
      </trkpt>
      <trkpt lat="36.814627715277" lon="-2.423803662185">
        <ele>0</ele>
        <time>2019-04-20T16:02:00Z</time>
      </trkpt>
      <trkpt lat="36.814489497746" lon="-2.423904161166">
        <ele>0</ele>
        <time>2019-04-20T16:02:06Z</time>
      </trkpt>
      <trkpt lat="36.814343233591" lon="-2.423990662374">
        <ele>0</ele>
        <time>2019-04-20T16:02:12Z</time>
      </trkpt>
      <trkpt lat="36.81424860194" lon="-2.424042713973">
        <ele>0</ele>
        <time>2019-04-20T16:02:16Z</time>
      </trkpt>
      <trkpt lat="36.814097643921" lon="-2.424114127761">
        <ele>0</ele>
        <time>2019-04-20T16:02:22Z</time>
      </trkpt>
      <trkpt lat="36.813938387821" lon="-2.424148996465">
        <ele>0</ele>
        <time>2019-04-20T16:02:28Z</time>
      </trkpt>
      <trkpt lat="36.813769827812" lon="-2.424174142165">
        <ele>0</ele>
        <time>2019-04-20T16:02:34Z</time>
      </trkpt>
      <trkpt lat="36.81361157754" lon="-2.424213872371">
        <ele>0</ele>
        <time>2019-04-20T16:02:40Z</time>
      </trkpt>
      <trkpt lat="36.813440838237" lon="-2.424216889855">
        <ele>0</ele>
        <time>2019-04-20T16:02:46Z</time>
      </trkpt>
      <trkpt lat="36.81328719801" lon="-2.424185206273">
        <ele>0</ele>
        <time>2019-04-20T16:02:52Z</time>
      </trkpt>
      <trkpt lat="36.813150237764" lon="-2.424154528519">
        <ele>0</ele>
        <time>2019-04-20T16:02:57Z</time>
      </trkpt>
      <trkpt lat="36.812981510117" lon="-2.424148661189">
        <ele>0</ele>
        <time>2019-04-20T16:03:03Z</time>
      </trkpt>
      <trkpt lat="36.812815632316" lon="-2.424140363108">
        <ele>0</ele>
        <time>2019-04-20T16:03:09Z</time>
      </trkpt>
      <trkpt lat="36.812625279367" lon="-2.424171962871">
        <ele>0</ele>
        <time>2019-04-20T16:03:16Z</time>
      </trkpt>
      <trkpt lat="36.812472728787" lon="-2.424228540696">
        <ele>0</ele>
        <time>2019-04-20T16:03:22Z</time>
      </trkpt>
      <trkpt lat="36.812325123528" lon="-2.424305235081">
        <ele>0</ele>
        <time>2019-04-20T16:03:28Z</time>
      </trkpt>
      <trkpt lat="36.812178524097" lon="-2.424421575853">
        <ele>0</ele>
        <time>2019-04-20T16:03:34Z</time>
      </trkpt>
      <trkpt lat="36.812046006258" lon="-2.424566079809">
        <ele>0</ele>
        <time>2019-04-20T16:03:40Z</time>
      </trkpt>
      <trkpt lat="36.811942070698" lon="-2.424719720036">
        <ele>0</ele>
        <time>2019-04-20T16:03:46Z</time>
      </trkpt>
      <trkpt lat="36.81184383483" lon="-2.424854081893">
        <ele>0</ele>
        <time>2019-04-20T16:03:51Z</time>
      </trkpt>
      <trkpt lat="36.811741072736" lon="-2.425039405702">
        <ele>0</ele>
        <time>2019-04-20T16:03:57Z</time>
      </trkpt>
      <trkpt lat="36.811726320592" lon="-2.425068574714">
        <ele>0</ele>
        <time>2019-04-20T16:03:58Z</time>
      </trkpt>
      <trkpt lat="36.811649877664" lon="-2.425260687862">
        <ele>0</ele>
        <time>2019-04-20T16:04:04Z</time>
      </trkpt>
      <trkpt lat="36.811597742246" lon="-2.425456824322">
        <ele>0</ele>
        <time>2019-04-20T16:04:10Z</time>
      </trkpt>
      <trkpt lat="36.811553653452" lon="-2.425655726809">
        <ele>0</ele>
        <time>2019-04-20T16:04:16Z</time>
      </trkpt>
      <trkpt lat="36.811525909363" lon="-2.425796961824">
        <ele>0</ele>
        <time>2019-04-20T16:04:20Z</time>
      </trkpt>
      <trkpt lat="36.811493890505" lon="-2.42599343356">
        <ele>0</ele>
        <time>2019-04-20T16:04:26Z</time>
      </trkpt>
      <trkpt lat="36.811455501403" lon="-2.426197449006">
        <ele>0</ele>
        <time>2019-04-20T16:04:32Z</time>
      </trkpt>
      <trkpt lat="36.811422141441" lon="-2.4263840301">
        <ele>0</ele>
        <time>2019-04-20T16:04:38Z</time>
      </trkpt>
      <trkpt lat="36.81136941929" lon="-2.426560972009">
        <ele>0</ele>
        <time>2019-04-20T16:04:44Z</time>
      </trkpt>
      <trkpt lat="36.811305884488" lon="-2.42674026085">
        <ele>0</ele>
        <time>2019-04-20T16:04:50Z</time>
      </trkpt>
      <trkpt lat="36.811246372998" lon="-2.42691963351">
        <ele>0</ele>
        <time>2019-04-20T16:04:56Z</time>
      </trkpt>
      <trkpt lat="36.811229525379" lon="-2.427021305957">
        <ele>0</ele>
        <time>2019-04-20T16:04:59Z</time>
      </trkpt>
      <trkpt lat="36.811252324147" lon="-2.427225740498">
        <ele>0</ele>
        <time>2019-04-20T16:05:05Z</time>
      </trkpt>
      <trkpt lat="36.811330191998" lon="-2.427394216688">
        <ele>0</ele>
        <time>2019-04-20T16:05:11Z</time>
      </trkpt>
      <trkpt lat="36.81138115395" lon="-2.427573337891">
        <ele>0</ele>
        <time>2019-04-20T16:05:17Z</time>
      </trkpt>
      <trkpt lat="36.811357936087" lon="-2.427751285628">
        <ele>0</ele>
        <time>2019-04-20T16:05:23Z</time>
      </trkpt>
      <trkpt lat="36.811378136466" lon="-2.427944236966">
        <ele>0</ele>
        <time>2019-04-20T16:05:29Z</time>
      </trkpt>
      <trkpt lat="36.811420213604" lon="-2.428134338458">
        <ele>0</ele>
        <time>2019-04-20T16:05:35Z</time>
      </trkpt>
      <trkpt lat="36.811461201095" lon="-2.428324272312">
        <ele>0</ele>
        <time>2019-04-20T16:05:41Z</time>
      </trkpt>
      <trkpt lat="36.811536470557" lon="-2.428492245588">
        <ele>0</ele>
        <time>2019-04-20T16:05:47Z</time>
      </trkpt>
      <trkpt lat="36.811642166316" lon="-2.428615208061">
        <ele>0</ele>
        <time>2019-04-20T16:05:53Z</time>
      </trkpt>
      <trkpt lat="36.811793459611" lon="-2.428649741489">
        <ele>0</ele>
        <time>2019-04-20T16:05:59Z</time>
      </trkpt>
      <trkpt lat="36.811878452077" lon="-2.428697685957">
        <ele>0</ele>
        <time>2019-04-20T16:06:03Z</time>
      </trkpt>
      <trkpt lat="36.81205170595" lon="-2.428629792567">
        <ele>0</ele>
        <time>2019-04-20T16:06:09Z</time>
      </trkpt>
      <trkpt lat="36.812220517416" lon="-2.428625098703">
        <ele>0</ele>
        <time>2019-04-20T16:06:15Z</time>
      </trkpt>
      <trkpt lat="36.812374828195" lon="-2.42856583867">
        <ele>0</ele>
        <time>2019-04-20T16:06:21Z</time>
      </trkpt>
      <trkpt lat="36.812489408768" lon="-2.428557289132">
        <ele>0</ele>
        <time>2019-04-20T16:06:26Z</time>
      </trkpt>
      <trkpt lat="36.812517991047" lon="-2.428547649947">
        <ele>0</ele>
        <time>2019-04-20T16:06:28Z</time>
      </trkpt>
      <trkpt lat="36.812548668801" lon="-2.428543375178">
        <ele>0</ele>
        <time>2019-04-20T16:06:31Z</time>
      </trkpt>
      <trkpt lat="36.813192650178" lon="-2.428388310028">
        <ele>0</ele>
        <time>2019-04-20T16:08:59Z</time>
      </trkpt>
      <trkpt lat="36.813183681545" lon="-2.428389148218">
        <ele>0</ele>
        <time>2019-04-20T16:09:02Z</time>
      </trkpt>
      <trkpt lat="36.813140263303" lon="-2.428404319457">
        <ele>0</ele>
        <time>2019-04-20T16:09:05Z</time>
      </trkpt>
      <trkpt lat="36.813128612462" lon="-2.428406247294">
        <ele>0</ele>
        <time>2019-04-20T16:09:06Z</time>
      </trkpt>
      <trkpt lat="36.813048984412" lon="-2.428403145991">
        <ele>0</ele>
        <time>2019-04-20T16:09:11Z</time>
      </trkpt>
      <trkpt lat="36.812959884815" lon="-2.428449749355">
        <ele>0</ele>
        <time>2019-04-20T16:09:17Z</time>
      </trkpt>
      <trkpt lat="36.812836838523" lon="-2.42843089008">
        <ele>0</ele>
        <time>2019-04-20T16:09:23Z</time>
      </trkpt>
      <trkpt lat="36.81278260763" lon="-2.428432817917">
        <ele>0</ele>
        <time>2019-04-20T16:09:26Z</time>
      </trkpt>
      <trkpt lat="36.812688227436" lon="-2.428440277808">
        <ele>0</ele>
        <time>2019-04-20T16:09:32Z</time>
      </trkpt>
      <trkpt lat="36.812628548308" lon="-2.42845016845">
        <ele>0</ele>
        <time>2019-04-20T16:09:36Z</time>
      </trkpt>
      <trkpt lat="36.812541544186" lon="-2.428450755183">
        <ele>0</ele>
        <time>2019-04-20T16:09:42Z</time>
      </trkpt>
      <trkpt lat="36.812462838145" lon="-2.428457376884">
        <ele>0</ele>
        <time>2019-04-20T16:09:46Z</time>
      </trkpt>
      <trkpt lat="36.812349682495" lon="-2.428473973046">
        <ele>0</ele>
        <time>2019-04-20T16:09:52Z</time>
      </trkpt>
      <trkpt lat="36.812302157122" lon="-2.428463160395">
        <ele>0</ele>
        <time>2019-04-20T16:09:56Z</time>
      </trkpt>
      <trkpt lat="36.812197802467" lon="-2.428451174278">
        <ele>0</ele>
        <time>2019-04-20T16:10:02Z</time>
      </trkpt>
      <trkpt lat="36.812082299885" lon="-2.428476236159">
        <ele>0</ele>
        <time>2019-04-20T16:10:08Z</time>
      </trkpt>
      <trkpt lat="36.812018010712" lon="-2.428491826493">
        <ele>0</ele>
        <time>2019-04-20T16:10:14Z</time>
      </trkpt>
      <trkpt lat="36.812016334332" lon="-2.42848872519">
        <ele>0</ele>
        <time>2019-04-20T16:10:15Z</time>
      </trkpt>
      <trkpt lat="36.812099901875" lon="-2.42858763161">
        <ele>0</ele>
        <time>2019-04-20T16:10:39Z</time>
      </trkpt>
      <trkpt lat="36.812077270745" lon="-2.428605317419">
        <ele>0</ele>
        <time>2019-04-20T16:10:41Z</time>
      </trkpt>
      <trkpt lat="36.812029242458" lon="-2.428603054306">
        <ele>0</ele>
        <time>2019-04-20T16:10:43Z</time>
      </trkpt>
      <trkpt lat="36.811877530068" lon="-2.428615375699">
        <ele>0</ele>
        <time>2019-04-20T16:10:49Z</time>
      </trkpt>
      <trkpt lat="36.811727661696" lon="-2.428574304389">
        <ele>0</ele>
        <time>2019-04-20T16:10:55Z</time>
      </trkpt>
      <trkpt lat="36.811603861033" lon="-2.428499370203">
        <ele>0</ele>
        <time>2019-04-20T16:11:01Z</time>
      </trkpt>
      <trkpt lat="36.811546947932" lon="-2.428429129881">
        <ele>0</ele>
        <time>2019-04-20T16:11:06Z</time>
      </trkpt>
      <trkpt lat="36.811496488894" lon="-2.428413874823">
        <ele>0</ele>
        <time>2019-04-20T16:11:12Z</time>
      </trkpt>
      <trkpt lat="36.811463799484" lon="-2.428284709744">
        <ele>0</ele>
        <time>2019-04-20T16:11:18Z</time>
      </trkpt>
      <trkpt lat="36.811436893585" lon="-2.42812578892">
        <ele>0</ele>
        <time>2019-04-20T16:11:24Z</time>
      </trkpt>
      <trkpt lat="36.811406886383" lon="-2.427930574469">
        <ele>0</ele>
        <time>2019-04-20T16:11:30Z</time>
      </trkpt>
      <trkpt lat="36.811415938835" lon="-2.427796464069">
        <ele>0</ele>
        <time>2019-04-20T16:11:35Z</time>
      </trkpt>
      <trkpt lat="36.811518784748" lon="-2.427790177644">
        <ele>0</ele>
        <time>2019-04-20T16:11:41Z</time>
      </trkpt>
      <trkpt lat="36.811545355371" lon="-2.427805181245">
        <ele>0</ele>
        <time>2019-04-20T16:11:44Z</time>
      </trkpt>
      <trkpt lat="36.811552060891" lon="-2.427816077715">
        <ele>0</ele>
        <time>2019-04-20T16:11:45Z</time>
      </trkpt>
      <trkpt lat="36.811553569633" lon="-2.427836864827">
        <ele>0</ele>
        <time>2019-04-20T16:11:47Z</time>
      </trkpt>
      <trkpt lat="36.811540912964" lon="-2.42797742929">
        <ele>0</ele>
        <time>2019-04-20T16:11:53Z</time>
      </trkpt>
      <trkpt lat="36.811561113343" lon="-2.42817356575">
        <ele>0</ele>
        <time>2019-04-20T16:11:59Z</time>
      </trkpt>
      <trkpt lat="36.81163009638" lon="-2.4283621585">
        <ele>0</ele>
        <time>2019-04-20T16:12:05Z</time>
      </trkpt>
      <trkpt lat="36.811767308083" lon="-2.428475062693">
        <ele>0</ele>
        <time>2019-04-20T16:12:11Z</time>
      </trkpt>
      <trkpt lat="36.811949698227" lon="-2.428442289464">
        <ele>0</ele>
        <time>2019-04-20T16:12:17Z</time>
      </trkpt>
      <trkpt lat="36.81211624658" lon="-2.428371546228">
        <ele>0</ele>
        <time>2019-04-20T16:12:23Z</time>
      </trkpt>
      <trkpt lat="36.812276424689" lon="-2.428302730829">
        <ele>0</ele>
        <time>2019-04-20T16:12:29Z</time>
      </trkpt>
      <trkpt lat="36.812302743855" lon="-2.428290493255">
        <ele>0</ele>
        <time>2019-04-20T16:12:30Z</time>
      </trkpt>
      <trkpt lat="36.812461245584" lon="-2.428219079467">
        <ele>0</ele>
        <time>2019-04-20T16:12:36Z</time>
      </trkpt>
      <trkpt lat="36.812613879983" lon="-2.428158981244">
        <ele>0</ele>
        <time>2019-04-20T16:12:42Z</time>
      </trkpt>
      <trkpt lat="36.812762323432" lon="-2.428104666532">
        <ele>0</ele>
        <time>2019-04-20T16:12:48Z</time>
      </trkpt>
      <trkpt lat="36.812916047478" lon="-2.428068289086">
        <ele>0</ele>
        <time>2019-04-20T16:12:54Z</time>
      </trkpt>
      <trkpt lat="36.813069855343" lon="-2.428074575511">
        <ele>0</ele>
        <time>2019-04-20T16:13:00Z</time>
      </trkpt>
      <trkpt lat="36.813217209145" lon="-2.428108857482">
        <ele>0</ele>
        <time>2019-04-20T16:13:06Z</time>
      </trkpt>
      <trkpt lat="36.813360874911" lon="-2.428147414222">
        <ele>0</ele>
        <time>2019-04-20T16:13:12Z</time>
      </trkpt>
      <trkpt lat="36.813514850414" lon="-2.428199130545">
        <ele>0</ele>
        <time>2019-04-20T16:13:18Z</time>
      </trkpt>
      <trkpt lat="36.813670418478" lon="-2.428233496335">
        <ele>0</ele>
        <time>2019-04-20T16:13:24Z</time>
      </trkpt>
      <trkpt lat="36.813828333474" lon="-2.428254115809">
        <ele>0</ele>
        <time>2019-04-20T16:13:30Z</time>
      </trkpt>
      <trkpt lat="36.813882732005" lon="-2.428260905148">
        <ele>0</ele>
        <time>2019-04-20T16:13:32Z</time>
      </trkpt>
      <trkpt lat="36.814048861263" lon="-2.428278423319">
        <ele>0</ele>
        <time>2019-04-20T16:13:38Z</time>
      </trkpt>
      <trkpt lat="36.814226725181" lon="-2.428273645636">
        <ele>0</ele>
        <time>2019-04-20T16:13:44Z</time>
      </trkpt>
      <trkpt lat="36.814401487796" lon="-2.428268029763">
        <ele>0</ele>
        <time>2019-04-20T16:13:50Z</time>
      </trkpt>
      <trkpt lat="36.814572646194" lon="-2.428253864352">
        <ele>0</ele>
        <time>2019-04-20T16:13:56Z</time>
      </trkpt>
      <trkpt lat="36.814729639181" lon="-2.428253696714">
        <ele>0</ele>
        <time>2019-04-20T16:14:02Z</time>
      </trkpt>
      <trkpt lat="36.814883279408" lon="-2.428267610668">
        <ele>0</ele>
        <time>2019-04-20T16:14:08Z</time>
      </trkpt>
      <trkpt lat="36.815035913807" lon="-2.428268951772">
        <ele>0</ele>
        <time>2019-04-20T16:14:14Z</time>
      </trkpt>
      <trkpt lat="36.815194247898" lon="-2.428246404461">
        <ele>0</ele>
        <time>2019-04-20T16:14:20Z</time>
      </trkpt>
      <trkpt lat="36.815357443491" lon="-2.428236932914">
        <ele>0</ele>
        <time>2019-04-20T16:14:26Z</time>
      </trkpt>
      <trkpt lat="36.81551845979" lon="-2.428229556842">
        <ele>0</ele>
        <time>2019-04-20T16:14:32Z</time>
      </trkpt>
      <trkpt lat="36.81568358322" lon="-2.428206841893">
        <ele>0</ele>
        <time>2019-04-20T16:14:38Z</time>
      </trkpt>
      <trkpt lat="36.815776706129" lon="-2.428132829716">
        <ele>0</ele>
        <time>2019-04-20T16:14:43Z</time>
      </trkpt>
      <trkpt lat="36.815760529062" lon="-2.427947673545">
        <ele>0</ele>
        <time>2019-04-20T16:14:49Z</time>
      </trkpt>
      <trkpt lat="36.815755416103" lon="-2.427871314436">
        <ele>0</ele>
        <time>2019-04-20T16:14:54Z</time>
      </trkpt>
      <trkpt lat="36.815821633113" lon="-2.428503477334">
        <ele>0</ele>
        <time>2019-04-20T16:16:55Z</time>
      </trkpt>
      <trkpt lat="36.815822555122" lon="-2.428682682356">
        <ele>0</ele>
        <time>2019-04-20T16:17:01Z</time>
      </trkpt>
      <trkpt lat="36.815835211791" lon="-2.428905221801">
        <ele>0</ele>
        <time>2019-04-20T16:17:07Z</time>
      </trkpt>
      <trkpt lat="36.8158445157" lon="-2.429147626349">
        <ele>0</ele>
        <time>2019-04-20T16:17:13Z</time>
      </trkpt>
      <trkpt lat="36.815861782414" lon="-2.429373434735">
        <ele>0</ele>
        <time>2019-04-20T16:17:19Z</time>
      </trkpt>
      <trkpt lat="36.815871756875" lon="-2.429589017203">
        <ele>0</ele>
        <time>2019-04-20T16:17:25Z</time>
      </trkpt>
      <trkpt lat="36.815878127119" lon="-2.429753470081">
        <ele>0</ele>
        <time>2019-04-20T16:17:30Z</time>
      </trkpt>
      <trkpt lat="36.815878965309" lon="-2.429962347029">
        <ele>0</ele>
        <time>2019-04-20T16:17:36Z</time>
      </trkpt>
      <trkpt lat="36.815891621978" lon="-2.430177761859">
        <ele>0</ele>
        <time>2019-04-20T16:17:42Z</time>
      </trkpt>
      <trkpt lat="36.815917019135" lon="-2.430524940157">
        <ele>0</ele>
        <time>2019-04-20T16:17:51Z</time>
      </trkpt>
      <trkpt lat="36.815945601414" lon="-2.43072166335">
        <ele>0</ele>
        <time>2019-04-20T16:17:57Z</time>
      </trkpt>
      <trkpt lat="36.815951049649" lon="-2.430756783511">
        <ele>0</ele>
        <time>2019-04-20T16:17:58Z</time>
      </trkpt>
      <trkpt lat="36.815962532852" lon="-2.430886367685">
        <ele>0</ele>
        <time>2019-04-20T16:18:02Z</time>
      </trkpt>
      <trkpt lat="36.815974183693" lon="-2.431075714806">
        <ele>0</ele>
        <time>2019-04-20T16:18:08Z</time>
      </trkpt>
      <trkpt lat="36.815969908924" lon="-2.431286435772">
        <ele>0</ele>
        <time>2019-04-20T16:18:14Z</time>
      </trkpt>
      <trkpt lat="36.815972423494" lon="-2.43151626747">
        <ele>0</ele>
        <time>2019-04-20T16:18:20Z</time>
      </trkpt>
      <trkpt lat="36.815982230317" lon="-2.431724809142">
        <ele>0</ele>
        <time>2019-04-20T16:18:26Z</time>
      </trkpt>
      <trkpt lat="36.815969741286" lon="-2.431932596443">
        <ele>0</ele>
        <time>2019-04-20T16:18:32Z</time>
      </trkpt>
      <trkpt lat="36.815965717974" lon="-2.432150944938">
        <ele>0</ele>
        <time>2019-04-20T16:18:38Z</time>
      </trkpt>
      <trkpt lat="36.815981643584" lon="-2.432354122194">
        <ele>0</ele>
        <time>2019-04-20T16:18:44Z</time>
      </trkpt>
      <trkpt lat="36.816011231691" lon="-2.432563334418">
        <ele>0</ele>
        <time>2019-04-20T16:18:50Z</time>
      </trkpt>
      <trkpt lat="36.816015841736" lon="-2.43260423809">
        <ele>0</ele>
        <time>2019-04-20T16:18:51Z</time>
      </trkpt>
      <trkpt lat="36.815993881158" lon="-2.432820407291">
        <ele>0</ele>
        <time>2019-04-20T16:18:57Z</time>
      </trkpt>
      <trkpt lat="36.815999329393" lon="-2.433041940908">
        <ele>0</ele>
        <time>2019-04-20T16:19:03Z</time>
      </trkpt>
      <trkpt lat="36.816026319111" lon="-2.433259786489">
        <ele>0</ele>
        <time>2019-04-20T16:19:09Z</time>
      </trkpt>
      <trkpt lat="36.816057751236" lon="-2.433474446948">
        <ele>0</ele>
        <time>2019-04-20T16:19:15Z</time>
      </trkpt>
      <trkpt lat="36.816076610511" lon="-2.433646024441">
        <ele>0</ele>
        <time>2019-04-20T16:19:20Z</time>
      </trkpt>
      <trkpt lat="36.81607334157" lon="-2.433862780375">
        <ele>0</ele>
        <time>2019-04-20T16:19:26Z</time>
      </trkpt>
      <trkpt lat="36.816076945787" lon="-2.43408783439">
        <ele>0</ele>
        <time>2019-04-20T16:19:32Z</time>
      </trkpt>
      <trkpt lat="36.816079376538" lon="-2.434308445998">
        <ele>0</ele>
        <time>2019-04-20T16:19:38Z</time>
      </trkpt>
      <trkpt lat="36.816079879452" lon="-2.434516903851">
        <ele>0</ele>
        <time>2019-04-20T16:19:44Z</time>
      </trkpt>
      <trkpt lat="36.816075604683" lon="-2.434652103898">
        <ele>0</ele>
        <time>2019-04-20T16:19:48Z</time>
      </trkpt>
      <trkpt lat="36.816068899163" lon="-2.434818819889">
        <ele>0</ele>
        <time>2019-04-20T16:19:54Z</time>
      </trkpt>
      <trkpt lat="36.816057667417" lon="-2.434913032445">
        <ele>0</ele>
        <time>2019-04-20T16:19:57Z</time>
      </trkpt>
      <trkpt lat="36.816088512809" lon="-2.434974974686">
        <ele>0</ele>
        <time>2019-04-20T16:19:59Z</time>
      </trkpt>
      <trkpt lat="36.816206865237" lon="-2.435151581319">
        <ele>0</ele>
        <time>2019-04-20T16:20:05Z</time>
      </trkpt>
      <trkpt lat="36.816316249032" lon="-2.435315279826">
        <ele>0</ele>
        <time>2019-04-20T16:20:11Z</time>
      </trkpt>
      <trkpt lat="36.81641951404" lon="-2.435476379944">
        <ele>0</ele>
        <time>2019-04-20T16:20:17Z</time>
      </trkpt>
      <trkpt lat="36.816519174831" lon="-2.435637899157">
        <ele>0</ele>
        <time>2019-04-20T16:20:23Z</time>
      </trkpt>
      <trkpt lat="36.816636940526" lon="-2.435779553267">
        <ele>0</ele>
        <time>2019-04-20T16:20:29Z</time>
      </trkpt>
      <trkpt lat="36.816740456991" lon="-2.435927745259">
        <ele>0</ele>
        <time>2019-04-20T16:20:35Z</time>
      </trkpt>
      <trkpt lat="36.816852690632" lon="-2.436078368002">
        <ele>0</ele>
        <time>2019-04-20T16:20:41Z</time>
      </trkpt>
      <trkpt lat="36.816964505178" lon="-2.436233852247">
        <ele>0</ele>
        <time>2019-04-20T16:20:47Z</time>
      </trkpt>
      <trkpt lat="36.817075313896" lon="-2.436382211877">
        <ele>0</ele>
        <time>2019-04-20T16:20:53Z</time>
      </trkpt>
      <trkpt lat="36.817192744315" lon="-2.436554376103">
        <ele>0</ele>
        <time>2019-04-20T16:20:59Z</time>
      </trkpt>
      <trkpt lat="36.817302295748" lon="-2.436713213108">
        <ele>0</ele>
        <time>2019-04-20T16:21:05Z</time>
      </trkpt>
      <trkpt lat="36.817418804158" lon="-2.436873223579">
        <ele>0</ele>
        <time>2019-04-20T16:21:11Z</time>
      </trkpt>
      <trkpt lat="36.817540341708" lon="-2.437044046701">
        <ele>0</ele>
        <time>2019-04-20T16:21:17Z</time>
      </trkpt>
      <trkpt lat="36.817646372743" lon="-2.437213277262">
        <ele>0</ele>
        <time>2019-04-20T16:21:23Z</time>
      </trkpt>
      <trkpt lat="36.817747793733" lon="-2.437384770936">
        <ele>0</ele>
        <time>2019-04-20T16:21:29Z</time>
      </trkpt>
      <trkpt lat="36.817875701527" lon="-2.437539416991">
        <ele>0</ele>
        <time>2019-04-20T16:21:35Z</time>
      </trkpt>
      <trkpt lat="36.817987935168" lon="-2.437600269585">
        <ele>0</ele>
        <time>2019-04-20T16:21:39Z</time>
      </trkpt>
      <trkpt lat="36.818066222114" lon="-2.437730775768">
        <ele>0</ele>
        <time>2019-04-20T16:21:45Z</time>
      </trkpt>
      <trkpt lat="36.818082985914" lon="-2.437815600596">
        <ele>0</ele>
        <time>2019-04-20T16:21:48Z</time>
      </trkpt>
      <trkpt lat="36.81817049295" lon="-2.437937305784">
        <ele>0</ele>
        <time>2019-04-20T16:21:53Z</time>
      </trkpt>
      <trkpt lat="36.818291527586" lon="-2.438066387044">
        <ele>0</ele>
        <time>2019-04-20T16:21:59Z</time>
      </trkpt>
      <trkpt lat="36.81840770072" lon="-2.438212399742">
        <ele>0</ele>
        <time>2019-04-20T16:22:05Z</time>
      </trkpt>
      <trkpt lat="36.818518257981" lon="-2.438379953923">
        <ele>0</ele>
        <time>2019-04-20T16:22:11Z</time>
      </trkpt>
      <trkpt lat="36.818621690627" lon="-2.438564523361">
        <ele>0</ele>
        <time>2019-04-20T16:22:17Z</time>
      </trkpt>
      <trkpt lat="36.81873794758" lon="-2.438757223242">
        <ele>0</ele>
        <time>2019-04-20T16:22:23Z</time>
      </trkpt>
      <trkpt lat="36.818849762126" lon="-2.438913880953">
        <ele>0</ele>
        <time>2019-04-20T16:22:29Z</time>
      </trkpt>
      <trkpt lat="36.818972473142" lon="-2.439057881995">
        <ele>0</ele>
        <time>2019-04-20T16:22:35Z</time>
      </trkpt>
      <trkpt lat="36.819091412303" lon="-2.439215796991">
        <ele>0</ele>
        <time>2019-04-20T16:22:41Z</time>
      </trkpt>
      <trkpt lat="36.819212782215" lon="-2.439386536294">
        <ele>0</ele>
        <time>2019-04-20T16:22:47Z</time>
      </trkpt>
      <trkpt lat="36.819338845991" lon="-2.439561131271">
        <ele>0</ele>
        <time>2019-04-20T16:22:53Z</time>
      </trkpt>
      <trkpt lat="36.819458204247" lon="-2.439708401254">
        <ele>0</ele>
        <time>2019-04-20T16:22:59Z</time>
      </trkpt>
      <trkpt lat="36.81965325106" lon="-2.440049963679">
        <ele>0</ele>
        <time>2019-04-20T16:23:11Z</time>
      </trkpt>
      <trkpt lat="36.81969516056" lon="-2.440133028308">
        <ele>0</ele>
        <time>2019-04-20T16:23:17Z</time>
      </trkpt>
      <trkpt lat="36.819735309861" lon="-2.440188013572">
        <ele>0</ele>
        <time>2019-04-20T16:23:23Z</time>
      </trkpt>
      <trkpt lat="36.819770513841" lon="-2.44025439822">
        <ele>0</ele>
        <time>2019-04-20T16:23:28Z</time>
      </trkpt>
      <trkpt lat="36.819788618745" lon="-2.440289015467">
        <ele>0</ele>
        <time>2019-04-20T16:23:31Z</time>
      </trkpt>
      <trkpt lat="36.819848130235" lon="-2.440375013761">
        <ele>0</ele>
        <time>2019-04-20T16:23:37Z</time>
      </trkpt>
      <trkpt lat="36.819888279536" lon="-2.440445840816">
        <ele>0</ele>
        <time>2019-04-20T16:23:43Z</time>
      </trkpt>
      <trkpt lat="36.819930105217" lon="-2.440504430297">
        <ele>0</ele>
        <time>2019-04-20T16:23:49Z</time>
      </trkpt>
      <trkpt lat="36.819981067169" lon="-2.440574922076">
        <ele>0</ele>
        <time>2019-04-20T16:23:55Z</time>
      </trkpt>
      <trkpt lat="36.820025910334" lon="-2.440642312552">
        <ele>0</ele>
        <time>2019-04-20T16:24:01Z</time>
      </trkpt>
      <trkpt lat="36.820067819834" lon="-2.440690424658">
        <ele>0</ele>
        <time>2019-04-20T16:24:05Z</time>
      </trkpt>
      <trkpt lat="36.820118362691" lon="-2.440762173722">
        <ele>0</ele>
        <time>2019-04-20T16:24:11Z</time>
      </trkpt>
      <trkpt lat="36.820168151177" lon="-2.440834090424">
        <ele>0</ele>
        <time>2019-04-20T16:24:17Z</time>
      </trkpt>
      <trkpt lat="36.820224142269" lon="-2.440904498384">
        <ele>0</ele>
        <time>2019-04-20T16:24:23Z</time>
      </trkpt>
      <trkpt lat="36.820287090338" lon="-2.440960405657">
        <ele>0</ele>
        <time>2019-04-20T16:24:29Z</time>
      </trkpt>
      <trkpt lat="36.820291700383" lon="-2.440967614091">
        <ele>0</ele>
        <time>2019-04-20T16:24:30Z</time>
      </trkpt>
      <trkpt lat="36.820337884652" lon="-2.441035675119">
        <ele>0</ele>
        <time>2019-04-20T16:24:36Z</time>
      </trkpt>
      <trkpt lat="36.820349451674" lon="-2.441043386467">
        <ele>0</ele>
        <time>2019-04-20T16:24:37Z</time>
      </trkpt>
      <trkpt lat="36.820359426135" lon="-2.441052941833">
        <ele>0</ele>
        <time>2019-04-20T16:24:38Z</time>
      </trkpt>
      <trkpt lat="36.820418267073" lon="-2.441141370878">
        <ele>0</ele>
        <time>2019-04-20T16:24:43Z</time>
      </trkpt>
      <trkpt lat="36.820531338904" lon="-2.441267518473">
        <ele>0</ele>
        <time>2019-04-20T16:24:49Z</time>
      </trkpt>
      <trkpt lat="36.820653463187" lon="-2.441426942211">
        <ele>0</ele>
        <time>2019-04-20T16:24:55Z</time>
      </trkpt>
      <trkpt lat="36.820759829498" lon="-2.441596843324">
        <ele>0</ele>
        <time>2019-04-20T16:25:01Z</time>
      </trkpt>
      <trkpt lat="36.820868039827" lon="-2.441747968981">
        <ele>0</ele>
        <time>2019-04-20T16:25:07Z</time>
      </trkpt>
      <trkpt lat="36.82097340031" lon="-2.441890796557">
        <ele>0</ele>
        <time>2019-04-20T16:25:13Z</time>
      </trkpt>
      <trkpt lat="36.821090579272" lon="-2.442032869762">
        <ele>0</ele>
        <time>2019-04-20T16:25:19Z</time>
      </trkpt>
      <trkpt lat="36.821207758234" lon="-2.442163543583">
        <ele>0</ele>
        <time>2019-04-20T16:25:25Z</time>
      </trkpt>
      <trkpt lat="36.821327032671" lon="-2.442304024227">
        <ele>0</ele>
        <time>2019-04-20T16:25:31Z</time>
      </trkpt>
      <trkpt lat="36.821462316537" lon="-2.442406283407">
        <ele>0</ele>
        <time>2019-04-20T16:25:37Z</time>
      </trkpt>
      <trkpt lat="36.821537083085" lon="-2.442551793191">
        <ele>0</ele>
        <time>2019-04-20T16:25:42Z</time>
      </trkpt>
      <trkpt lat="36.821596510756" lon="-2.442736614086">
        <ele>0</ele>
        <time>2019-04-20T16:25:48Z</time>
      </trkpt>
      <trkpt lat="36.821708241483" lon="-2.442887572105">
        <ele>0</ele>
        <time>2019-04-20T16:25:54Z</time>
      </trkpt>
      <trkpt lat="36.821827767377" lon="-2.443039535952">
        <ele>0</ele>
        <time>2019-04-20T16:26:00Z</time>
      </trkpt>
      <trkpt lat="36.821951987135" lon="-2.443189823419">
        <ele>0</ele>
        <time>2019-04-20T16:26:06Z</time>
      </trkpt>
      <trkpt lat="36.822071093934" lon="-2.443351426451">
        <ele>0</ele>
        <time>2019-04-20T16:26:12Z</time>
      </trkpt>
      <trkpt lat="36.822184081946" lon="-2.443521830478">
        <ele>0</ele>
        <time>2019-04-20T16:26:18Z</time>
      </trkpt>
      <trkpt lat="36.822298159605" lon="-2.443714781816">
        <ele>0</ele>
        <time>2019-04-20T16:26:24Z</time>
      </trkpt>
      <trkpt lat="36.822413997463" lon="-2.443879989065">
        <ele>0</ele>
        <time>2019-04-20T16:26:30Z</time>
      </trkpt>
      <trkpt lat="36.822537379031" lon="-2.444028097238">
        <ele>0</ele>
        <time>2019-04-20T16:26:36Z</time>
      </trkpt>
      <trkpt lat="36.822648355387" lon="-2.444205542061">
        <ele>0</ele>
        <time>2019-04-20T16:26:42Z</time>
      </trkpt>
      <trkpt lat="36.822661431151" lon="-2.444418693778">
        <ele>0</ele>
        <time>2019-04-20T16:26:48Z</time>
      </trkpt>
      <trkpt lat="36.822762852141" lon="-2.444602676483">
        <ele>0</ele>
        <time>2019-04-20T16:26:54Z</time>
      </trkpt>
      <trkpt lat="36.822885982252" lon="-2.444749862647">
        <ele>0</ele>
        <time>2019-04-20T16:27:00Z</time>
      </trkpt>
      <trkpt lat="36.822997964436" lon="-2.44493736575">
        <ele>0</ele>
        <time>2019-04-20T16:27:06Z</time>
      </trkpt>
      <trkpt lat="36.823112377371" lon="-2.445123192473">
        <ele>0</ele>
        <time>2019-04-20T16:27:12Z</time>
      </trkpt>
      <trkpt lat="36.823241290993" lon="-2.445267864067">
        <ele>0</ele>
        <time>2019-04-20T16:27:18Z</time>
      </trkpt>
      <trkpt lat="36.823355452471" lon="-2.44543273604">
        <ele>0</ele>
        <time>2019-04-20T16:27:24Z</time>
      </trkpt>
      <trkpt lat="36.823468189026" lon="-2.445596602185">
        <ele>0</ele>
        <time>2019-04-20T16:27:30Z</time>
      </trkpt>
      <trkpt lat="36.823565419066" lon="-2.445763569633">
        <ele>0</ele>
        <time>2019-04-20T16:27:39Z</time>
      </trkpt>
      <trkpt lat="36.823620655787" lon="-2.445835486335">
        <ele>0</ele>
        <time>2019-04-20T16:27:45Z</time>
      </trkpt>
      <trkpt lat="36.823712102316" lon="-2.445946630329">
        <ele>0</ele>
        <time>2019-04-20T16:27:51Z</time>
      </trkpt>
      <trkpt lat="36.823799525533" lon="-2.44609909709">
        <ele>0</ele>
        <time>2019-04-20T16:27:57Z</time>
      </trkpt>
      <trkpt lat="36.823892313166" lon="-2.446240835019">
        <ele>0</ele>
        <time>2019-04-20T16:28:03Z</time>
      </trkpt>
      <trkpt lat="36.823938832711" lon="-2.446317194128">
        <ele>0</ele>
        <time>2019-04-20T16:28:06Z</time>
      </trkpt>
      <trkpt lat="36.824040924253" lon="-2.446445772474">
        <ele>0</ele>
        <time>2019-04-20T16:28:12Z</time>
      </trkpt>
      <trkpt lat="36.824140585044" lon="-2.446602681642">
        <ele>0</ele>
        <time>2019-04-20T16:28:18Z</time>
      </trkpt>
      <trkpt lat="36.824232366849" lon="-2.446775767877">
        <ele>0</ele>
        <time>2019-04-20T16:28:24Z</time>
      </trkpt>
      <trkpt lat="36.824329345432" lon="-2.446937119452">
        <ele>0</ele>
        <time>2019-04-20T16:28:30Z</time>
      </trkpt>
      <trkpt lat="36.824423641807" lon="-2.447089502394">
        <ele>0</ele>
        <time>2019-04-20T16:28:36Z</time>
      </trkpt>
      <trkpt lat="36.824517854363" lon="-2.447240795689">
        <ele>0</ele>
        <time>2019-04-20T16:28:42Z</time>
      </trkpt>
      <trkpt lat="36.824623131027" lon="-2.447389742052">
        <ele>0</ele>
        <time>2019-04-20T16:28:48Z</time>
      </trkpt>
      <trkpt lat="36.824728323872" lon="-2.447537934044">
        <ele>0</ele>
        <time>2019-04-20T16:28:54Z</time>
      </trkpt>
      <trkpt lat="36.824799821479" lon="-2.447694424117">
        <ele>0</ele>
        <time>2019-04-20T16:29:00Z</time>
      </trkpt>
      <trkpt lat="36.824877354054" lon="-2.447889722387">
        <ele>0</ele>
        <time>2019-04-20T16:29:06Z</time>
      </trkpt>
      <trkpt lat="36.8249807867" lon="-2.44806884359">
        <ele>0</ele>
        <time>2019-04-20T16:29:12Z</time>
      </trkpt>
      <trkpt lat="36.82507717855" lon="-2.448247042784">
        <ele>0</ele>
        <time>2019-04-20T16:29:18Z</time>
      </trkpt>
      <trkpt lat="36.825187651992" lon="-2.448407053255">
        <ele>0</ele>
        <time>2019-04-20T16:29:24Z</time>
      </trkpt>
      <trkpt lat="36.825282116005" lon="-2.448590868322">
        <ele>0</ele>
        <time>2019-04-20T16:29:30Z</time>
      </trkpt>
      <trkpt lat="36.825385716289" lon="-2.448748280404">
        <ele>0</ele>
        <time>2019-04-20T16:29:36Z</time>
      </trkpt>
      <trkpt lat="36.825488226926" lon="-2.448926395779">
        <ele>0</ele>
        <time>2019-04-20T16:29:46Z</time>
      </trkpt>
      <trkpt lat="36.825554192479" lon="-2.448993283341">
        <ele>0</ele>
        <time>2019-04-20T16:29:52Z</time>
      </trkpt>
      <trkpt lat="36.825639939316" lon="-2.44913334489">
        <ele>0</ele>
        <time>2019-04-20T16:29:58Z</time>
      </trkpt>
      <trkpt lat="36.825725686153" lon="-2.449286230746">
        <ele>0</ele>
        <time>2019-04-20T16:30:04Z</time>
      </trkpt>
      <trkpt lat="36.825813779922" lon="-2.449441882629">
        <ele>0</ele>
        <time>2019-04-20T16:30:10Z</time>
      </trkpt>
      <trkpt lat="36.825894329981" lon="-2.449604659127">
        <ele>0</ele>
        <time>2019-04-20T16:30:16Z</time>
      </trkpt>
      <trkpt lat="36.825933557273" lon="-2.44967313925">
        <ele>0</ele>
        <time>2019-04-20T16:30:20Z</time>
      </trkpt>
      <trkpt lat="36.825959876439" lon="-2.449733991844">
        <ele>0</ele>
        <time>2019-04-20T16:30:26Z</time>
      </trkpt>
      <trkpt lat="36.826011341305" lon="-2.449802304329">
        <ele>0</ele>
        <time>2019-04-20T16:30:32Z</time>
      </trkpt>
      <trkpt lat="36.826060459239" lon="-2.449865671493">
        <ele>0</ele>
        <time>2019-04-20T16:30:38Z</time>
      </trkpt>
      <trkpt lat="36.826110163906" lon="-2.449951250692">
        <ele>0</ele>
        <time>2019-04-20T16:30:44Z</time>
      </trkpt>
      <trkpt lat="36.826170429767" lon="-2.450026939249">
        <ele>0</ele>
        <time>2019-04-20T16:30:50Z</time>
      </trkpt>
      <trkpt lat="36.826223571013" lon="-2.450095000277">
        <ele>0</ele>
        <time>2019-04-20T16:30:56Z</time>
      </trkpt>
      <trkpt lat="36.826233796931" lon="-2.450120062158">
        <ele>0</ele>
        <time>2019-04-20T16:30:58Z</time>
      </trkpt>
      <trkpt lat="36.826225582669" lon="-2.450165575875">
        <ele>0</ele>
        <time>2019-04-20T16:31:01Z</time>
      </trkpt>
      <trkpt lat="36.826991017777" lon="-2.451316075469">
        <ele>0</ele>
        <time>2019-04-20T16:33:25Z</time>
      </trkpt>
      <trkpt lat="36.827101910314" lon="-2.451470637705">
        <ele>0</ele>
        <time>2019-04-20T16:33:31Z</time>
      </trkpt>
      <trkpt lat="36.827209785367" lon="-2.451647411976">
        <ele>0</ele>
        <time>2019-04-20T16:33:37Z</time>
      </trkpt>
      <trkpt lat="36.827312547461" lon="-2.45184069859">
        <ele>0</ele>
        <time>2019-04-20T16:33:43Z</time>
      </trkpt>
      <trkpt lat="36.827396282642" lon="-2.451979586673">
        <ele>0</ele>
        <time>2019-04-20T16:33:49Z</time>
      </trkpt>
      <trkpt lat="36.827823759542" lon="-2.452555171746">
        <ele>0</ele>
        <time>2019-04-20T16:36:07Z</time>
      </trkpt>
      <trkpt lat="36.82784572012" lon="-2.452574785392">
        <ele>0</ele>
        <time>2019-04-20T16:36:09Z</time>
      </trkpt>
      <trkpt lat="36.827943620712" lon="-2.452757343174">
        <ele>0</ele>
        <time>2019-04-20T16:36:15Z</time>
      </trkpt>
      <trkpt lat="36.828040347838" lon="-2.452994215668">
        <ele>0</ele>
        <time>2019-04-20T16:36:21Z</time>
      </trkpt>
      <trkpt lat="36.828135314765" lon="-2.453200745684">
        <ele>0</ele>
        <time>2019-04-20T16:36:27Z</time>
      </trkpt>
      <trkpt lat="36.828231622796" lon="-2.453382297638">
        <ele>0</ele>
        <time>2019-04-20T16:36:33Z</time>
      </trkpt>
      <trkpt lat="36.828331702682" lon="-2.453554545683">
        <ele>0</ele>
        <time>2019-04-20T16:36:39Z</time>
      </trkpt>
      <trkpt lat="36.828423819763" lon="-2.453733666886">
        <ele>0</ele>
        <time>2019-04-20T16:36:45Z</time>
      </trkpt>
      <trkpt lat="36.82852213945" lon="-2.453906334026">
        <ele>0</ele>
        <time>2019-04-20T16:36:51Z</time>
      </trkpt>
      <trkpt lat="36.828619788585" lon="-2.454081012822">
        <ele>0</ele>
        <time>2019-04-20T16:36:57Z</time>
      </trkpt>
      <trkpt lat="36.828716012797" lon="-2.454275724359">
        <ele>0</ele>
        <time>2019-04-20T16:37:03Z</time>
      </trkpt>
      <trkpt lat="36.828818104339" lon="-2.454417210831">
        <ele>0</ele>
        <time>2019-04-20T16:37:09Z</time>
      </trkpt>
      <trkpt lat="36.828864372427" lon="-2.454465742032">
        <ele>0</ele>
        <time>2019-04-20T16:37:15Z</time>
      </trkpt>
      <trkpt lat="36.828870407395" lon="-2.454476638502">
        <ele>0</ele>
        <time>2019-04-20T16:37:16Z</time>
      </trkpt>
    </trkseg>
  </trk>
</gpx>